Observation data for Clyde on 05/29/2019      Previous  Date  Next       Current Mesonet Observations  Soil Data  Daily Summary Page  Observations in Plain Language
KCL2 290500Z 17008KT 23/19 A2977 RMK A01 T02250193  RH  082%=      5-min Rain = 0
KCL2 290501Z 16010KT 23/19 A2977 RMK A01 T02260193  RH  082%=      5-min Rain = 0
KCL2 290502Z 17009KT 23/19 A2977 RMK A01 T02260193  RH  082%=      5-min Rain = 0
KCL2 290503Z 16008KT 23/19 A2977 RMK A01 T02260193  RH  082%=      5-min Rain = 0
KCL2 290504Z 17008KT 23/19 A2977 RMK A01 T02260193  RH  082%=      5-min Rain = 0
KCL2 290505Z 17009KT 23/19 A2977 RMK A01 T02250193  RH  082%=      5-min Rain = 0
KCL2 290506Z 16011KT 23/19 A2977 RMK A01 T02250193  RH  082%=      5-min Rain = 0
KCL2 290507Z 16009KT 23/19 A2977 RMK A01 T02250193  RH  082%=      5-min Rain = 0
KCL2 290508Z 17008KT 23/19 A2977 RMK A01 T02250193  RH  082%=      5-min Rain = 0
KCL2 290509Z 16008KT 22/19 A2977 RMK A01 T02240193  RH  082%=      5-min Rain = 0
KCL2 290510Z 17007KT 22/19 A2977 RMK A01 T02240193  RH  082%=      5-min Rain = 0
KCL2 290511Z 17009KT 22/19 A2977 RMK A01 T02240193  RH  083%=      5-min Rain = 0
KCL2 290512Z 16009KT 22/19 A2977 RMK A01 T02230193  RH  083%=      5-min Rain = 0
KCL2 290513Z 17009KT 22/19 A2977 RMK A01 T02230193  RH  083%=      5-min Rain = 0
KCL2 290514Z 17008KT 22/19 A2977 RMK A01 T02230193  RH  083%=      5-min Rain = 0
KCL2 290515Z 17009KT 22/19 A2977 RMK A01 T02230193  RH  083%=      5-min Rain = 0
KCL2 290516Z 16010KT 22/19 A2976 RMK A01 T02230193  RH  083%=      5-min Rain = 0
KCL2 290517Z 17009KT 22/19 A2976 RMK A01 T02230192  RH  083%=      5-min Rain = 0
KCL2 290518Z 17010KT 22/19 A2977 RMK A01 T02240193  RH  082%=      5-min Rain = 0
KCL2 290519Z 17011KT 22/19 A2976 RMK A01 T02240193  RH  082%=      5-min Rain = 0
KCL2 290520Z 17009KT 22/19 A2976 RMK A01 T02240192  RH  082%=      5-min Rain = 0
KCL2 290521Z 17009KT 22/19 A2976 RMK A01 T02240193  RH  082%=      5-min Rain = 0
KCL2 290522Z 17009KT 22/19 A2976 RMK A01 T02230192  RH  083%=      5-min Rain = 0
KCL2 290523Z 17009KT 22/19 A2976 RMK A01 T02220192  RH  083%=      5-min Rain = 0
KCL2 290524Z 17009KT 22/19 A2976 RMK A01 T02230193  RH  083%=      5-min Rain = 0
KCL2 290525Z 17008KT 22/19 A2976 RMK A01 T02220193  RH  083%=      5-min Rain = 0
KCL2 290526Z 16009KT 22/19 A2976 RMK A01 T02220192  RH  083%=      5-min Rain = 0
KCL2 290527Z 16009KT 22/19 A2976 RMK A01 T02220192  RH  083%=      5-min Rain = 0
KCL2 290528Z 16009KT 22/19 A2976 RMK A01 T02220192  RH  083%=      5-min Rain = 0
KCL2 290529Z 16009KT 22/19 A2976 RMK A01 T02220192  RH  083%=      5-min Rain = 0
KCL2 290530Z 16009KT 22/19 A2976 RMK A01 T02210192  RH  084%=      5-min Rain = 0
KCL2 290531Z 16009KT 22/19 A2976 RMK A01 T02210192  RH  084%=      5-min Rain = 0
KCL2 290532Z 16010KT 22/19 A2976 RMK A01 T02210192  RH  084%=      5-min Rain = 0
KCL2 290533Z 16008KT 22/19 A2976 RMK A01 T02200192  RH  084%=      5-min Rain = 0
KCL2 290534Z 16008KT 22/19 A2976 RMK A01 T02200192  RH  084%=      5-min Rain = 0
KCL2 290535Z 16008KT 22/19 A2976 RMK A01 T02190192  RH  084%=      5-min Rain = 0
KCL2 290536Z 16009KT 22/19 A2976 RMK A01 T02190192  RH  084%=      5-min Rain = 0
KCL2 290537Z 16009KT 22/19 A2976 RMK A01 T02190192  RH  085%=      5-min Rain = 0
KCL2 290538Z 16009KT 22/19 A2976 RMK A01 T02190192  RH  085%=      5-min Rain = 0
KCL2 290539Z 16008KT 22/19 A2976 RMK A01 T02190192  RH  085%=      5-min Rain = 0
KCL2 290540Z 16008KT 22/19 A2976 RMK A01 T02190192  RH  085%=      5-min Rain = 0
KCL2 290541Z 16009KT 22/19 A2976 RMK A01 T02180192  RH  085%=      5-min Rain = 0
KCL2 290542Z 16009KT 22/19 A2976 RMK A01 T02180192  RH  085%=      5-min Rain = 0
KCL2 290543Z 16010KT 22/19 A2976 RMK A01 T02180192  RH  085%=      5-min Rain = 0
KCL2 290544Z 16010KT 22/19 A2976 RMK A01 T02190192  RH  085%=      5-min Rain = 0
KCL2 290545Z 16011KT 22/19 A2976 RMK A01 T02190192  RH  085%=      5-min Rain = 0
KCL2 290546Z 16009KT 22/19 A2976 RMK A01 T02190192  RH  085%=      5-min Rain = 0
KCL2 290547Z 16009KT 22/19 A2976 RMK A01 T02190192  RH  085%=      5-min Rain = 0
KCL2 290548Z 16010KT 22/19 A2976 RMK A01 T02190192  RH  085%=      5-min Rain = 0
KCL2 290549Z 16009KT 22/19 A2976 RMK A01 T02190192  RH  085%=      5-min Rain = 0
KCL2 290550Z 16009KT 22/19 A2976 RMK A01 T02190192  RH  085%=      5-min Rain = 0
KCL2 290551Z 16009KT 22/19 A2976 RMK A01 T02180192  RH  085%=      5-min Rain = 0
KCL2 290552Z 16009KT 22/19 A2976 RMK A01 T02180192  RH  085%=      5-min Rain = 0
KCL2 290553Z 17009KT 22/19 A2976 RMK A01 T02180192  RH  085%=      5-min Rain = 0
KCL2 290554Z 16010KT 22/19 A2976 RMK A01 T02180192  RH  085%=      5-min Rain = 0
KCL2 290555Z 16010KT 22/19 A2976 RMK A01 T02180192  RH  085%=      5-min Rain = 0
KCL2 290556Z 16010KT 22/19 A2976 RMK A01 T02180192  RH  085%=      5-min Rain = 0
KCL2 290557Z 16009KT 22/19 A2976 RMK A01 T02180192  RH  085%=      5-min Rain = 0
KCL2 290558Z 16009KT 22/19 A2976 RMK A01 T02180192  RH  085%=      5-min Rain = 0
KCL2 290559Z 16011KT 22/19 A2976 RMK A01 T02180192  RH  085%=      5-min Rain = 0
KCL2 290600Z 16010KT 22/19 A2976 RMK A01 T02180192  RH  085%=      5-min Rain = 0
KCL2 290601Z 16008KT 22/19 A2976 RMK A01 T02180192  RH  085%=      5-min Rain = 0
KCL2 290602Z 16011KT 22/19 A2976 RMK A01 T02170192  RH  085%=      5-min Rain = 0
KCL2 290603Z 16010KT 22/19 A2976 RMK A01 T02170192  RH  085%=      5-min Rain = 0
KCL2 290604Z 16010KT 22/19 A2976 RMK A01 T02170192  RH  085%=      5-min Rain = 0
KCL2 290605Z 16011KT 22/19 A2976 RMK A01 T02170192  RH  085%=      5-min Rain = 0
KCL2 290606Z 16012KT 22/19 A2976 RMK A01 T02170192  RH  086%=      5-min Rain = 0
KCL2 290607Z 16011KT 22/19 A2976 RMK A01 T02170192  RH  085%=      5-min Rain = 0
KCL2 290608Z 16011KT 22/19 A2976 RMK A01 T02170192  RH  085%=      5-min Rain = 0
KCL2 290609Z 16010KT 22/19 A2976 RMK A01 T02170192  RH  085%=      5-min Rain = 0
KCL2 290610Z 16011KT 22/19 A2976 RMK A01 T02170192  RH  085%=      5-min Rain = 0
KCL2 290611Z 16010KT 22/19 A2976 RMK A01 T02180192  RH  086%=      5-min Rain = 0
KCL2 290612Z 16011KT 22/19 A2976 RMK A01 T02180193  RH  086%=      5-min Rain = 0
KCL2 290613Z 16011KT 22/19 A2976 RMK A01 T02170192  RH  086%=      5-min Rain = 0
KCL2 290614Z 16013KT 22/19 A2976 RMK A01 T02170193  RH  086%=      5-min Rain = 0
KCL2 290615Z 17011KT 22/19 A2975 RMK A01 T02170193  RH  086%=      5-min Rain = 0
KCL2 290616Z 16012KT 22/19 A2975 RMK A01 T02170193  RH  086%=      5-min Rain = 0
KCL2 290617Z 16012KT 22/19 A2975 RMK A01 T02170193  RH  086%=      5-min Rain = 0
KCL2 290618Z 16010KT 22/19 A2975 RMK A01 T02170193  RH  086%=      5-min Rain = 0
KCL2 290619Z 16011KT 22/19 A2975 RMK A01 T02170194  RH  086%=      5-min Rain = 0
KCL2 290620Z 17012KT 22/19 A2975 RMK A01 T02170194  RH  086%=      5-min Rain = 0
KCL2 290621Z 16010KT 22/19 A2975 RMK A01 T02170194  RH  086%=      5-min Rain = 0
KCL2 290622Z 16012KT 22/19 A2975 RMK A01 T02170194  RH  086%=      5-min Rain = 0
KCL2 290623Z 16011KT 22/19 A2975 RMK A01 T02170194  RH  087%=      5-min Rain = 0
KCL2 290624Z 16011KT 22/20 A2975 RMK A01 T02180195  RH  087%=      5-min Rain = 0
KCL2 290625Z 16012G18KT 22/20 A2975 RMK A01 T02170195  RH  087%=      5-min Rain = 0
KCL2 290626Z 16010KT 22/20 A2975 RMK A01 T02170195  RH  087%=      5-min Rain = 0
KCL2 290627Z 16012KT 22/20 A2975 RMK A01 T02170195  RH  087%=      5-min Rain = 0
KCL2 290628Z 16013KT 22/20 A2975 RMK A01 T02180196  RH  087%=      5-min Rain = 0
KCL2 290629Z 16011KT 22/20 A2975 RMK A01 T02170195  RH  087%=      5-min Rain = 0
KCL2 290630Z 17012KT 22/20 A2975 RMK A01 T02170195  RH  087%=      5-min Rain = 0
KCL2 290631Z 16011KT 22/20 A2975 RMK A01 T02170196  RH  088%=      5-min Rain = 0
KCL2 290632Z 17011KT 22/20 A2975 RMK A01 T02180196  RH  088%=      5-min Rain = 0
KCL2 290633Z 16012KT 22/20 A2975 RMK A01 T02170197  RH  088%=      5-min Rain = 0
KCL2 290634Z 17012KT 22/20 A2975 RMK A01 T02170197  RH  088%=      5-min Rain = 0
KCL2 290635Z 16011KT 22/20 A2975 RMK A01 T02170197  RH  088%=      5-min Rain = 0
KCL2 290636Z 17011KT 22/20 A2975 RMK A01 T02170197  RH  088%=      5-min Rain = 0
KCL2 290637Z 17012KT 22/20 A2975 RMK A01 T02170198  RH  088%=      5-min Rain = 0
KCL2 290638Z 17010KT 22/20 A2975 RMK A01 T02180198  RH  089%=      5-min Rain = 0
KCL2 290639Z 17010KT 22/20 A2975 RMK A01 T02170198  RH  089%=      5-min Rain = 0
KCL2 290640Z 17011G17KT 22/20 A2975 RMK A01 T02170198  RH  089%=      5-min Rain = 0
KCL2 290641Z 17011KT 22/20 A2975 RMK A01 T02170198  RH  089%=      5-min Rain = 0
KCL2 290642Z 17012KT 22/20 A2975 RMK A01 T02170199  RH  089%=      5-min Rain = 0
KCL2 290643Z 17010KT 22/20 A2975 RMK A01 T02170199  RH  089%=      5-min Rain = 0
KCL2 290644Z 17014KT 22/20 A2975 RMK A01 T02170199  RH  089%=      5-min Rain = 0
KCL2 290645Z 17009KT 22/20 A2975 RMK A01 T02170199  RH  089%=      5-min Rain = 0
KCL2 290646Z 17013KT 22/20 A2975 RMK A01 T02170199  RH  090%=      5-min Rain = 0
KCL2 290647Z 17012KT 22/20 A2975 RMK A01 T02170199  RH  090%=      5-min Rain = 0
KCL2 290648Z 16011KT 22/20 A2975 RMK A01 T02170199  RH  090%=      5-min Rain = 0
KCL2 290649Z 16012KT 22/20 A2975 RMK A01 T02170200  RH  090%=      5-min Rain = 0
KCL2 290650Z 16011KT 22/20 A2974 RMK A01 T02170200  RH  090%=      5-min Rain = 0
KCL2 290651Z 17010KT 22/20 A2974 RMK A01 T02170200  RH  090%=      5-min Rain = 0
KCL2 290652Z 17013G18KT 22/20 A2974 RMK A01 T02170201  RH  090%=      5-min Rain = 0
KCL2 290653Z 16013KT 22/20 A2974 RMK A01 T02160200  RH  091%=      5-min Rain = 0
KCL2 290654Z 17012KT 22/20 A2974 RMK A01 T02160200  RH  091%=      5-min Rain = 0
KCL2 290655Z 16013KT 22/20 A2974 RMK A01 T02160200  RH  091%=      5-min Rain = 0
KCL2 290656Z 16011KT 22/20 A2974 RMK A01 T02160200  RH  091%=      5-min Rain = 0
KCL2 290657Z 16012G17KT 22/20 A2974 RMK A01 T02160201  RH  091%=      5-min Rain = 0
KCL2 290658Z 17010G16KT 22/20 A2974 RMK A01 T02160201  RH  091%=      5-min Rain = 0
KCL2 290659Z 17011KT 22/20 A2974 RMK A01 T02160201  RH  091%=      5-min Rain = 0
KCL2 290700Z 17013KT 22/20 A2974 RMK A01 T02170202  RH  091%=      5-min Rain = 0
KCL2 290701Z 17012KT 22/20 A2974 RMK A01 T02160202  RH  091%=      5-min Rain = 0
KCL2 290702Z 17013KT 22/20 A2974 RMK A01 T02170202  RH  092%=      5-min Rain = 0
KCL2 290703Z 17011KT 22/20 A2974 RMK A01 T02170203  RH  091%=      5-min Rain = 0
KCL2 290704Z 17012G18KT 22/20 A2974 RMK A01 T02170202  RH  091%=      5-min Rain = 0
KCL2 290705Z 17013KT 22/20 A2974 RMK A01 T02170203  RH  092%=      5-min Rain = 0
KCL2 290706Z 17013KT 22/20 A2974 RMK A01 T02170203  RH  092%=      5-min Rain = 0
KCL2 290707Z 16012KT 22/20 A2974 RMK A01 T02170203  RH  092%=      5-min Rain = 0
KCL2 290708Z 17013KT 22/20 A2974 RMK A01 T02180203  RH  092%=      5-min Rain = 0
KCL2 290709Z 17012KT 22/20 A2974 RMK A01 T02180204  RH  092%=      5-min Rain = 0
KCL2 290710Z 16013KT 22/20 A2974 RMK A01 T02180203  RH  092%=      5-min Rain = 0
KCL2 290711Z 17011KT 22/20 A2974 RMK A01 T02180204  RH  092%=      5-min Rain = 0
KCL2 290712Z 17013KT 22/20 A2974 RMK A01 T02180204  RH  092%=      5-min Rain = 0
KCL2 290713Z 17013KT 22/21 A2974 RMK A01 T02190205  RH  092%=      5-min Rain = 0
KCL2 290714Z 17012KT 22/21 A2974 RMK A01 T02190205  RH  092%=      5-min Rain = 0
KCL2 290715Z 17014KT 22/21 A2974 RMK A01 T02190205  RH  092%=      5-min Rain = 0
KCL2 290716Z 17012KT 22/21 A2974 RMK A01 T02190206  RH  092%=      5-min Rain = 0
KCL2 290717Z 17012KT 22/21 A2974 RMK A01 T02190205  RH  092%=      5-min Rain = 0
KCL2 290718Z 17012KT 22/21 A2974 RMK A01 T02190205  RH  092%=      5-min Rain = 0
KCL2 290719Z 17014KT 22/21 A2973 RMK A01 T02190206  RH  092%=      5-min Rain = 0
KCL2 290720Z 17012KT 22/21 A2973 RMK A01 T02190206  RH  092%=      5-min Rain = 0
KCL2 290721Z 17013KT 22/21 A2973 RMK A01 T02190206  RH  092%=      5-min Rain = 0
KCL2 290722Z 17014KT 22/21 A2973 RMK A01 T02190206  RH  092%=      5-min Rain = 0
KCL2 290723Z 17014KT 22/21 A2973 RMK A01 T02190207  RH  092%=      5-min Rain = 0
KCL2 290724Z 17014KT 22/21 A2973 RMK A01 T02190206  RH  092%=      5-min Rain = 0
KCL2 290725Z 17013KT 22/21 A2973 RMK A01 T02190207  RH  093%=      5-min Rain = 0
KCL2 290726Z 17011KT 22/21 A2973 RMK A01 T02190207  RH  093%=      5-min Rain = 0
KCL2 290727Z 17011KT 22/21 A2973 RMK A01 T02200207  RH  093%=      5-min Rain = 0
KCL2 290728Z 17013G18KT 22/21 A2973 RMK A01 T02200208  RH  093%=      5-min Rain = 0
KCL2 290729Z 17012KT 22/21 A2973 RMK A01 T02190207  RH  093%=      5-min Rain = 0
KCL2 290730Z 17012KT 22/21 A2973 RMK A01 T02200208  RH  093%=      5-min Rain = 0
KCL2 290731Z 17012KT 22/21 A2973 RMK A01 T02200208  RH  093%=      5-min Rain = 0
KCL2 290732Z 17014KT 22/21 A2973 RMK A01 T02200208  RH  093%=      5-min Rain = 0
KCL2 290733Z 17014KT 22/21 A2973 RMK A01 T02200209  RH  093%=      5-min Rain = 0
KCL2 290734Z 17011KT 22/21 A2973 RMK A01 T02210209  RH  093%=      5-min Rain = 0
KCL2 290735Z 17010G16KT 22/21 A2973 RMK A01 T02210209  RH  093%=      5-min Rain = 0
KCL2 290736Z 17015KT 22/21 A2973 RMK A01 T02200209  RH  093%=      5-min Rain = 0
KCL2 290737Z 17012G17KT 22/21 A2973 RMK A01 T02210210  RH  093%=      5-min Rain = 0
KCL2 290738Z 17012G17KT 22/21 A2973 RMK A01 T02210209  RH  093%=      5-min Rain = 0
KCL2 290739Z 17011KT 22/21 A2973 RMK A01 T02210209  RH  093%=      5-min Rain = 0
KCL2 290740Z 17013KT 22/21 A2973 RMK A01 T02210209  RH  093%=      5-min Rain = 0
KCL2 290741Z 17015KT 22/21 A2973 RMK A01 T02210210  RH  093%=      5-min Rain = 0
KCL2 290742Z 17013KT 22/21 A2973 RMK A01 T02210210  RH  093%=      5-min Rain = 0
KCL2 290743Z 18014KT 22/21 A2973 RMK A01 T02220210  RH  093%=      5-min Rain = 0
KCL2 290744Z 17013KT 22/21 A2973 RMK A01 T02220210  RH  093%=      5-min Rain = 0
KCL2 290745Z 17013KT 22/21 A2973 RMK A01 T02210210  RH  093%=      5-min Rain = 0
KCL2 290746Z 17013KT 22/21 A2973 RMK A01 T02220210  RH  093%=      5-min Rain = 0
KCL2 290747Z 17011KT 22/21 A2973 RMK A01 T02210210  RH  093%=      5-min Rain = 0
KCL2 290748Z 17011KT 22/21 A2973 RMK A01 T02210210  RH  093%=      5-min Rain = 0
KCL2 290749Z 17010KT 22/21 A2973 RMK A01 T02210210  RH  093%=      5-min Rain = 0
KCL2 290750Z 17010KT 22/21 A2973 RMK A01 T02220210  RH  093%=      5-min Rain = 0
KCL2 290751Z 17011KT 22/21 A2973 RMK A01 T02220211  RH  093%=      5-min Rain = 0
KCL2 290752Z 17012KT 22/21 A2973 RMK A01 T02210211  RH  094%=      5-min Rain = 0
KCL2 290753Z 17013KT 22/21 A2973 RMK A01 T02210211  RH  094%=      5-min Rain = 0
KCL2 290754Z 17011KT 22/21 A2973 RMK A01 T02220211  RH  094%=      5-min Rain = 0
KCL2 290755Z 18011KT 22/21 A2973 RMK A01 T02220211  RH  093%=      5-min Rain = 0
KCL2 290756Z 17011KT 22/21 A2973 RMK A01 T02220211  RH  093%=      5-min Rain = 0
KCL2 290757Z 17012KT 22/21 A2973 RMK A01 T02220211  RH  094%=      5-min Rain = 0
KCL2 290758Z 17011KT 22/21 A2973 RMK A01 T02220211  RH  094%=      5-min Rain = 0
KCL2 290759Z 17011KT 22/21 A2974 RMK A01 T02210211  RH  094%=      5-min Rain = 0
KCL2 290800Z 18009KT 22/21 A2974 RMK A01 T02210211  RH  094%=      5-min Rain = 0
KCL2 290801Z 17011KT 22/21 A2973 RMK A01 T02210211  RH  094%=      5-min Rain = 0
KCL2 290802Z 17010KT 22/21 A2973 RMK A01 T02210211  RH  094%=      5-min Rain = 0
KCL2 290803Z 17013KT 22/21 A2973 RMK A01 T02200211  RH  094%=      5-min Rain = 0
KCL2 290804Z 17014KT 22/21 A2973 RMK A01 T02210211  RH  094%=      5-min Rain = 0
KCL2 290805Z 17014KT 22/21 A2973 RMK A01 T02210211  RH  094%=      5-min Rain = 0
KCL2 290806Z 17013KT 22/21 A2973 RMK A01 T02210211  RH  094%=      5-min Rain = 0
KCL2 290807Z 17012G18KT 22/21 A2973 RMK A01 T02210211  RH  094%=      5-min Rain = 0
KCL2 290808Z 17015KT 22/21 A2973 RMK A01 T02210211  RH  094%=      5-min Rain = 0
KCL2 290809Z 17013KT 22/21 A2973 RMK A01 T02210211  RH  094%=      5-min Rain = 0
KCL2 290810Z 18014KT 22/21 A2973 RMK A01 T02220212  RH  094%=      5-min Rain = 0
KCL2 290811Z 17013KT 22/21 A2973 RMK A01 T02220212  RH  094%=      5-min Rain = 0
KCL2 290812Z 17014G19KT 22/21 A2973 RMK A01 T02220212  RH  094%=      5-min Rain = 0
KCL2 290813Z 17012KT 22/21 A2973 RMK A01 T02220212  RH  094%=      5-min Rain = 0
KCL2 290814Z 18014KT 22/21 A2973 RMK A01 T02230212  RH  094%=      5-min Rain = 0
KCL2 290815Z 18013G19KT 22/21 A2973 RMK A01 T02220212  RH  094%=      5-min Rain = 0
KCL2 290816Z 18011KT 22/21 A2973 RMK A01 T02230212  RH  094%=      5-min Rain = 0
KCL2 290817Z 18013G18KT 22/21 A2974 RMK A01 T02220212  RH  094%=      5-min Rain = 0
KCL2 290818Z 18012KT 22/21 A2974 RMK A01 T02220212  RH  094%=      5-min Rain = 0
KCL2 290819Z 18014G19KT 22/21 A2974 RMK A01 T02220212  RH  094%=      5-min Rain = 0
KCL2 290820Z 17013KT 22/21 A2974 RMK A01 T02220212  RH  094%=      5-min Rain = 0
KCL2 290821Z 17011KT 22/21 A2973 RMK A01 T02230212  RH  094%=      5-min Rain = 0
KCL2 290822Z 18012G17KT 22/21 A2973 RMK A01 T02230212  RH  094%=      5-min Rain = 0
KCL2 290823Z 17014KT 22/21 A2973 RMK A01 T02230212  RH  094%=      5-min Rain = 0
KCL2 290824Z 17012KT 22/21 A2973 RMK A01 T02230212  RH  094%=      5-min Rain = 0
KCL2 290825Z 17013KT 22/21 A2973 RMK A01 T02220212  RH  094%=      5-min Rain = 0
KCL2 290826Z 17014KT 22/21 A2973 RMK A01 T02220212  RH  094%=      5-min Rain = 0
KCL2 290827Z 18013KT 22/21 A2973 RMK A01 T02220212  RH  094%=      5-min Rain = 0
KCL2 290828Z 17015G21KT 22/21 A2973 RMK A01 T02220212  RH  094%=      5-min Rain = 0
KCL2 290829Z 17015KT 22/21 A2973 RMK A01 T02220212  RH  094%=      5-min Rain = 0
KCL2 290830Z 18013KT 22/21 A2973 RMK A01 T02220212  RH  094%=      5-min Rain = 0
KCL2 290831Z 17012KT 22/21 A2973 RMK A01 T02220212  RH  094%=      5-min Rain = 0
KCL2 290832Z 17013KT 22/21 A2973 RMK A01 T02220212  RH  094%=      5-min Rain = 0
KCL2 290833Z 17012KT 22/21 A2973 RMK A01 T02220212  RH  094%=      5-min Rain = 0
KCL2 290834Z 17012KT 22/21 A2973 RMK A01 T02210212  RH  094%=      5-min Rain = 0
KCL2 290835Z 18014KT 22/21 A2973 RMK A01 T02210212  RH  094%=      5-min Rain = 0
KCL2 290836Z 17013KT 22/21 A2973 RMK A01 T02210212  RH  094%=      5-min Rain = 0
KCL2 290837Z 17011KT 22/21 A2973 RMK A01 T02210212  RH  094%=      5-min Rain = 0
KCL2 290838Z 18011KT 22/21 A2973 RMK A01 T02210212  RH  094%=      5-min Rain = 0
KCL2 290839Z 17015KT 22/21 A2973 RMK A01 T02210212  RH  095%=      5-min Rain = 0
KCL2 290840Z 18014KT 22/21 A2973 RMK A01 T02210212  RH  095%=      5-min Rain = 0
KCL2 290841Z 17016KT 22/21 A2973 RMK A01 T02210212  RH  095%=      5-min Rain = 0
KCL2 290842Z 17013KT 22/21 A2973 RMK A01 T02200211  RH  095%=      5-min Rain = 0
KCL2 290843Z 18011KT 22/21 A2973 RMK A01 T02210211  RH  094%=      5-min Rain = 0
KCL2 290844Z 17013G18KT 22/21 A2973 RMK A01 T02210211  RH  094%=      5-min Rain = 0
KCL2 290845Z 17014G19KT 22/21 A2973 RMK A01 T02200212  RH  095%=      5-min Rain = 0
KCL2 290846Z 17014KT 22/21 A2973 RMK A01 T02210212  RH  095%=      5-min Rain = 0
KCL2 290847Z 18011KT 22/21 A2973 RMK A01 T02210212  RH  095%=      5-min Rain = 0
KCL2 290848Z 18013KT 22/21 A2974 RMK A01 T02210212  RH  095%=      5-min Rain = 0
KCL2 290849Z 18012KT 22/21 A2974 RMK A01 T02210212  RH  095%=      5-min Rain = 0
KCL2 290850Z 18010KT 22/21 A2974 RMK A01 T02200212  RH  095%=      5-min Rain = 0
KCL2 290851Z 18013KT 22/21 A2973 RMK A01 T02200211  RH  095%=      5-min Rain = 0
KCL2 290852Z 17012KT 22/21 A2973 RMK A01 T02200212  RH  095%=      5-min Rain = 0
KCL2 290853Z 17013KT 22/21 A2973 RMK A01 T02200212  RH  095%=      5-min Rain = 0
KCL2 290854Z 17011KT 22/21 A2973 RMK A01 T02200212  RH  095%=      5-min Rain = 0
KCL2 290855Z 17010KT 22/21 A2973 RMK A01 T02200211  RH  095%=      5-min Rain = 0
KCL2 290856Z 17010KT 22/21 A2973 RMK A01 T02200211  RH  095%=      5-min Rain = 0
KCL2 290857Z 18012KT 22/21 A2973 RMK A01 T02200211  RH  095%=      5-min Rain = 0
KCL2 290858Z 18012KT 22/21 A2973 RMK A01 T02200212  RH  095%=      5-min Rain = 0
KCL2 290859Z 17010KT 22/21 A2973 RMK A01 T02190211  RH  095%=      5-min Rain = 0
KCL2 290900Z 17011KT 22/21 A2973 RMK A01 T02190211  RH  095%=      5-min Rain = 0
KCL2 290901Z 17011KT 22/21 A2973 RMK A01 T02190211  RH  095%=      5-min Rain = 0
KCL2 290902Z 17009KT 22/21 A2973 RMK A01 T02190211  RH  095%=      5-min Rain = 0
KCL2 290903Z 17011KT 22/21 A2973 RMK A01 T02190211  RH  095%=      5-min Rain = 0
KCL2 290904Z 18010KT 22/21 A2973 RMK A01 T02190211  RH  095%=      5-min Rain = 0
KCL2 290905Z 17011KT 22/21 A2973 RMK A01 T02190211  RH  095%=      5-min Rain = 0
KCL2 290906Z 17012KT 22/21 A2973 RMK A01 T02190211  RH  095%=      5-min Rain = 0
KCL2 290907Z 18011KT 22/21 A2973 RMK A01 T02190211  RH  095%=      5-min Rain = 0
KCL2 290908Z 18008KT 22/21 A2973 RMK A01 T02190211  RH  095%=      5-min Rain = 0
KCL2 290909Z 17008KT 22/21 A2973 RMK A01 T02190211  RH  095%=      5-min Rain = 0
KCL2 290910Z 17009KT 22/21 A2973 RMK A01 T02190211  RH  095%=      5-min Rain = 0
KCL2 290911Z 17010KT 22/21 A2973 RMK A01 T02190211  RH  095%=      5-min Rain = 0
KCL2 290912Z 17011KT 22/21 A2973 RMK A01 T02190211  RH  096%=      5-min Rain = 0
KCL2 290913Z 18011KT 22/21 A2973 RMK A01 T02190211  RH  096%=      5-min Rain = 0
KCL2 290914Z 17009G14KT 22/21 A2973 RMK A01 T02190212  RH  095%=      5-min Rain = 0
KCL2 290915Z 18009KT 22/21 A2973 RMK A01 T02190211  RH  095%=      5-min Rain = 0
KCL2 290916Z 17009KT 22/21 A2973 RMK A01 T02190211  RH  095%=      5-min Rain = 0
KCL2 290917Z 18010KT 22/21 A2973 RMK A01 T02190211  RH  095%=      5-min Rain = 0
KCL2 290918Z 17011KT 22/21 A2973 RMK A01 T02190211  RH  095%=      5-min Rain = 0
KCL2 290919Z 17007KT 22/21 A2973 RMK A01 T02190211  RH  095%=      5-min Rain = 0
KCL2 290920Z 17011KT 22/21 A2973 RMK A01 T02190211  RH  095%=      5-min Rain = 0
KCL2 290921Z 17009KT 22/21 A2973 RMK A01 T02190211  RH  095%=      5-min Rain = 0
KCL2 290922Z 17008KT 22/21 A2973 RMK A01 T02190211  RH  095%=      5-min Rain = 0
KCL2 290923Z 17009KT 22/21 A2973 RMK A01 T02190211  RH  095%=      5-min Rain = 0
KCL2 290924Z 18009KT 22/21 A2973 RMK A01 T02190211  RH  095%=      5-min Rain = 0
KCL2 290925Z 18009KT 22/21 A2973 RMK A01 T02190211  RH  095%=      5-min Rain = 0
KCL2 290926Z 18009KT 22/21 A2973 RMK A01 T02190211  RH  095%=      5-min Rain = 0
KCL2 290927Z 17009KT 22/21 A2973 RMK A01 T02190211  RH  095%=      5-min Rain = 0
KCL2 290928Z 18010KT 22/21 A2973 RMK A01 T02190211  RH  095%=      5-min Rain = 0
KCL2 290929Z 18010KT 22/21 A2974 RMK A01 T02190211  RH  095%=      5-min Rain = 0
KCL2 290930Z 18012KT 22/21 A2974 RMK A01 T02190211  RH  095%=      5-min Rain = 0
KCL2 290931Z 18010G15KT 22/21 A2974 RMK A01 T02190211  RH  095%=      5-min Rain = 0
KCL2 290932Z 18010KT 22/21 A2974 RMK A01 T02190211  RH  095%=      5-min Rain = 0
KCL2 290933Z 18011KT 22/21 A2974 RMK A01 T02190211  RH  095%=      5-min Rain = 0
KCL2 290934Z 17011KT 22/21 A2974 RMK A01 T02190211  RH  095%=      5-min Rain = 0
KCL2 290935Z 17012KT 22/21 A2974 RMK A01 T02200211  RH  095%=      5-min Rain = 0
KCL2 290936Z 17010KT 22/21 A2974 RMK A01 T02200210  RH  095%=      5-min Rain = 0
KCL2 290937Z 17009KT 22/21 A2974 RMK A01 T02200211  RH  094%=      5-min Rain = 0
KCL2 290938Z 17011KT 22/21 A2974 RMK A01 T02200210  RH  094%=      5-min Rain = 0
KCL2 290939Z 18010KT 22/21 A2974 RMK A01 T02200210  RH  094%=      5-min Rain = 0
KCL2 290940Z 17011KT 22/21 A2974 RMK A01 T02200210  RH  094%=      5-min Rain = 0
KCL2 290941Z 17012KT 22/21 A2974 RMK A01 T02200211  RH  094%=      5-min Rain = 0
KCL2 290942Z 17011KT 22/21 A2974 RMK A01 T02200210  RH  094%=      5-min Rain = 0
KCL2 290943Z 17009KT 22/21 A2974 RMK A01 T02200210  RH  094%=      5-min Rain = 0
KCL2 290944Z 17009KT 22/21 A2974 RMK A01 T02200210  RH  094%=      5-min Rain = 0
KCL2 290945Z 17010KT 22/21 A2974 RMK A01 T02200211  RH  094%=      5-min Rain = 0
KCL2 290946Z 17009KT 22/21 A2974 RMK A01 T02200211  RH  095%=      5-min Rain = 0
KCL2 290947Z 17009KT 22/21 A2974 RMK A01 T02200210  RH  095%=      5-min Rain = 0
KCL2 290948Z 18011KT 22/21 A2974 RMK A01 T02190210  RH  095%=      5-min Rain = 0
KCL2 290949Z 18009KT 22/21 A2974 RMK A01 T02200211  RH  095%=      5-min Rain = 0
KCL2 290950Z 17009KT 22/21 A2975 RMK A01 T02200211  RH  094%=      5-min Rain = 0
KCL2 290951Z 17009KT 22/21 A2975 RMK A01 T02200210  RH  094%=      5-min Rain = 0
KCL2 290952Z 18009KT 22/21 A2975 RMK A01 T02200210  RH  094%=      5-min Rain = 0
KCL2 290953Z 18010KT 22/21 A2975 RMK A01 T02200210  RH  094%=      5-min Rain = 0
KCL2 290954Z 18008KT 22/21 A2975 RMK A01 T02200211  RH  094%=      5-min Rain = 0
KCL2 290955Z 18010KT 22/21 A2975 RMK A01 T02200210  RH  094%=      5-min Rain = 0
KCL2 290956Z 18008KT 22/21 A2975 RMK A01 T02200211  RH  094%=      5-min Rain = 0
KCL2 290957Z 18011KT 22/21 A2975 RMK A01 T02200210  RH  094%=      5-min Rain = 0
KCL2 290958Z 18011KT 22/21 A2975 RMK A01 T02200210  RH  094%=      5-min Rain = 0
KCL2 290959Z 18009KT 22/21 A2975 RMK A01 T02200210  RH  094%=      5-min Rain = 0
KCL2 291000Z 18008KT 22/21 A2975 RMK A01 T02200210  RH  094%=      5-min Rain = 0
KCL2 291001Z 18007KT 22/21 A2975 RMK A01 T02200210  RH  094%=      5-min Rain = 0
KCL2 291002Z 17008KT 22/21 A2975 RMK A01 T02200210  RH  094%=      5-min Rain = 0
KCL2 291003Z 18010KT 22/21 A2975 RMK A01 T02200210  RH  094%=      5-min Rain = 0
KCL2 291004Z 18011KT 22/21 A2975 RMK A01 T02200211  RH  094%=      5-min Rain = 0
KCL2 291005Z 18009KT 22/21 A2975 RMK A01 T02200210  RH  094%=      5-min Rain = 0
KCL2 291006Z 17009KT 22/21 A2975 RMK A01 T02200210  RH  094%=      5-min Rain = 0
KCL2 291007Z 17010KT 22/21 A2975 RMK A01 T02200210  RH  094%=      5-min Rain = 0
KCL2 291008Z 18009KT 22/21 A2975 RMK A01 T02200210  RH  094%=      5-min Rain = 0
KCL2 291009Z 17008KT 22/21 A2975 RMK A01 T02200210  RH  094%=      5-min Rain = 0
KCL2 291010Z 18008KT 22/21 A2975 RMK A01 T02200210  RH  094%=      5-min Rain = 0
KCL2 291011Z 18007KT 22/21 A2975 RMK A01 T02200210  RH  094%=      5-min Rain = 0
KCL2 291012Z 18008KT 22/21 A2975 RMK A01 T02200210  RH  094%=      5-min Rain = 0
KCL2 291013Z 18011KT 22/21 A2975 RMK A01 T02200210  RH  094%=      5-min Rain = 0
KCL2 291014Z 17009KT 22/21 A2975 RMK A01 T02200210  RH  094%=      5-min Rain = 0
KCL2 291015Z 18011KT 22/21 A2975 RMK A01 T02200210  RH  094%=      5-min Rain = 0
KCL2 291016Z 18010KT 22/21 A2975 RMK A01 T02200210  RH  094%=      5-min Rain = 0
KCL2 291017Z 18009KT 22/21 A2975 RMK A01 T02200210  RH  094%=      5-min Rain = 0
KCL2 291018Z 18011KT 22/21 A2975 RMK A01 T02200210  RH  094%=      5-min Rain = 0
KCL2 291019Z 18011KT 22/21 A2975 RMK A01 T02200210  RH  094%=      5-min Rain = 0
KCL2 291020Z 18009KT 22/21 A2975 RMK A01 T02200210  RH  094%=      5-min Rain = 0
KCL2 291021Z 18010KT 22/21 A2975 RMK A01 T02200210  RH  094%=      5-min Rain = 0
KCL2 291022Z 18011KT 22/21 A2975 RMK A01 T02200210  RH  094%=      5-min Rain = 0
KCL2 291023Z 18009G14KT 22/21 A2975 RMK A01 T02200210  RH  094%=      5-min Rain = 0
KCL2 291024Z 18010KT 22/21 A2975 RMK A01 T02200210  RH  094%=      5-min Rain = 0
KCL2 291025Z 18009KT 22/21 A2975 RMK A01 T02190209  RH  094%=      5-min Rain = 0
KCL2 291026Z 17008KT 22/21 A2975 RMK A01 T02190209  RH  094%=      5-min Rain = 0
KCL2 291027Z 17008KT 22/21 A2975 RMK A01 T02190210  RH  094%=      5-min Rain = 0
KCL2 291028Z 18008G13KT 22/21 A2975 RMK A01 T02190210  RH  094%=      5-min Rain = 0
KCL2 291029Z 17009KT 22/21 A2975 RMK A01 T02190209  RH  094%=      5-min Rain = 0
KCL2 291030Z 17009KT 22/21 A2975 RMK A01 T02190210  RH  095%=      5-min Rain = 0
KCL2 291031Z 17009KT 22/21 A2975 RMK A01 T02190210  RH  095%=      5-min Rain = 0
KCL2 291032Z 17008KT 22/21 A2975 RMK A01 T02190210  RH  095%=      5-min Rain = 0
KCL2 291033Z 17009KT 22/21 A2975 RMK A01 T02190210  RH  095%=      5-min Rain = 0
KCL2 291034Z 17008KT 22/21 A2975 RMK A01 T02190210  RH  095%=      5-min Rain = 0
KCL2 291035Z 17009KT 22/21 A2975 RMK A01 T02190210  RH  095%=      5-min Rain = 0
KCL2 291036Z 17006KT 22/21 A2975 RMK A01 T02180210  RH  095%=      5-min Rain = 0
KCL2 291037Z 16009KT 22/21 A2975 RMK A01 T02180209  RH  095%=      5-min Rain = 0
KCL2 291038Z 16009KT 22/21 A2975 RMK A01 T02180209  RH  095%=      5-min Rain = 0
KCL2 291039Z 17010KT 22/21 A2975 RMK A01 T02180209  RH  095%=      5-min Rain = 0
KCL2 291040Z 17011KT 22/21 A2975 RMK A01 T02180209  RH  095%=      5-min Rain = 0
KCL2 291041Z 17009KT 22/21 A2975 RMK A01 T02190210  RH  095%=      5-min Rain = 0
KCL2 291042Z 17009KT 22/21 A2975 RMK A01 T02180209  RH  094%=      5-min Rain = 0
KCL2 291043Z 16009KT 22/21 A2975 RMK A01 T02180209  RH  094%=      5-min Rain = 0
KCL2 291044Z 17009KT 22/21 A2975 RMK A01 T02180209  RH  094%=      5-min Rain = 0
KCL2 291045Z 17008KT 22/21 A2975 RMK A01 T02180209  RH  094%=      5-min Rain = 0
KCL2 291046Z 17009KT 22/21 A2975 RMK A01 T02180209  RH  095%=      5-min Rain = 0
KCL2 291047Z 16008KT 22/21 A2975 RMK A01 T02180209  RH  095%=      5-min Rain = 0
KCL2 291048Z 16007KT 22/21 A2975 RMK A01 T02180209  RH  095%=      5-min Rain = 0
KCL2 291049Z 16008KT 22/21 A2974 RMK A01 T02180209  RH  095%=      5-min Rain = 0
KCL2 291050Z 16009KT 22/21 A2974 RMK A01 T02180209  RH  095%=      5-min Rain = 0
KCL2 291051Z 16007KT 22/21 A2974 RMK A01 T02170209  RH  095%=      5-min Rain = 0
KCL2 291052Z 15007KT 22/21 A2974 RMK A01 T02170209  RH  095%=      5-min Rain = 0
KCL2 291053Z 16008KT 22/21 A2974 RMK A01 T02170209  RH  095%=      5-min Rain = 0
KCL2 291054Z 15007KT 22/21 A2974 RMK A01 T02170209  RH  095%=      5-min Rain = 0
KCL2 291055Z 16007KT 22/21 A2974 RMK A01 T02170208  RH  095%=      5-min Rain = 0
KCL2 291056Z 16006KT 22/21 A2974 RMK A01 T02170208  RH  095%=      5-min Rain = 0
KCL2 291057Z 16006KT 22/21 A2974 RMK A01 T02170208  RH  095%=      5-min Rain = 0
KCL2 291058Z 16006KT 22/21 A2974 RMK A01 T02160208  RH  095%=      5-min Rain = 0
KCL2 291059Z 16007KT 22/21 A2974 RMK A01 T02160208  RH  095%=      5-min Rain = 0
KCL2 291100Z 16007KT 22/21 A2974 RMK A01 T02160208  RH  095%=      5-min Rain = 0
KCL2 291101Z 15007KT 22/21 A2974 RMK A01 T02160208  RH  095%=      5-min Rain = 0
KCL2 291102Z 16006KT 22/21 A2974 RMK A01 T02160208  RH  095%=      5-min Rain = 0
KCL2 291103Z 16007KT 22/21 A2974 RMK A01 T02160208  RH  095%=      5-min Rain = 0
KCL2 291104Z 15007KT 22/21 A2974 RMK A01 T02160208  RH  095%=      5-min Rain = 0
KCL2 291105Z 16006KT 22/21 A2975 RMK A01 T02160208  RH  095%=      5-min Rain = 0
KCL2 291106Z 16007KT 22/21 A2975 RMK A01 T02160208  RH  095%=      5-min Rain = 0
KCL2 291107Z 16006KT 22/21 A2975 RMK A01 T02160208  RH  095%=      5-min Rain = 0
KCL2 291108Z 16007KT 22/21 A2975 RMK A01 T02160208  RH  095%=      5-min Rain = 0
KCL2 291109Z 15007KT 22/21 A2974 RMK A01 T02160208  RH  095%=      5-min Rain = 0
KCL2 291110Z 16007KT 22/21 A2974 RMK A01 T02160208  RH  095%=      5-min Rain = 0
KCL2 291111Z 16008KT 22/21 A2974 RMK A01 T02160208  RH  095%=      5-min Rain = 0
KCL2 291112Z 15007KT 22/21 A2974 RMK A01 T02150208  RH  095%=      5-min Rain = 0
KCL2 291113Z 15008KT 22/21 A2974 RMK A01 T02150208  RH  095%=      5-min Rain = 0
KCL2 291114Z 15008KT 22/21 A2974 RMK A01 T02160208  RH  096%=      5-min Rain = 0
KCL2 291115Z 14008KT 22/21 A2974 RMK A01 T02150208  RH  096%=      5-min Rain = 0
KCL2 291116Z 15010KT 22/21 A2974 RMK A01 T02160208  RH  095%=      5-min Rain = 0
KCL2 291117Z 14009KT 22/21 A2973 RMK A01 T02150208  RH  095%=      5-min Rain = 0
KCL2 291118Z 15010KT 22/21 A2973 RMK A01 T02160208  RH  095%=      5-min Rain = 0
KCL2 291119Z 14009KT 22/21 A2973 RMK A01 T02160208  RH  095%=      5-min Rain = 0
KCL2 291120Z 15008KT 22/21 A2973 RMK A01 T02150208  RH  095%=      5-min Rain = 0
KCL2 291121Z 15010KT 22/21 A2973 RMK A01 T02160208  RH  095%=      5-min Rain = 0
KCL2 291122Z 15010KT 22/21 A2973 RMK A01 T02160208  RH  095%=      5-min Rain = 0
KCL2 291123Z 15009KT 22/21 A2973 RMK A01 T02160208  RH  095%=      5-min Rain = 0
KCL2 291124Z 15009KT 22/21 A2973 RMK A01 T02150208  RH  095%=      5-min Rain = 0
KCL2 291125Z 14010KT 22/21 A2973 RMK A01 T02150207  RH  095%=      5-min Rain = 0
KCL2 291126Z 15009KT 22/21 A2973 RMK A01 T02150208  RH  095%=      5-min Rain = 0
KCL2 291127Z 15009KT 22/21 A2973 RMK A01 T02150207  RH  095%=      5-min Rain = 0
KCL2 291128Z 15009KT 22/21 A2973 RMK A01 T02150207  RH  095%=      5-min Rain = 0
KCL2 291129Z 15008KT 22/21 A2973 RMK A01 T02150207  RH  095%=      5-min Rain = 0
KCL2 291130Z 15008KT 22/21 A2973 RMK A01 T02150207  RH  095%=      5-min Rain = 0
KCL2 291131Z 16012KT 22/21 A2973 RMK A01 T02160207  RH  095%=      5-min Rain = 0
KCL2 291132Z 15009KT 22/21 A2973 RMK A01 T02160207  RH  095%=      5-min Rain = 0
KCL2 291133Z 15011KT 22/21 A2973 RMK A01 T02150206  RH  094%=      5-min Rain = 0
KCL2 291134Z 15011KT 22/21 A2973 RMK A01 T02160206  RH  094%=      5-min Rain = 0
KCL2 291135Z 15011KT 22/21 A2973 RMK A01 T02160206  RH  094%=      5-min Rain = 0
KCL2 291136Z 15011KT 22/21 A2973 RMK A01 T02160206  RH  094%=      5-min Rain = 0
KCL2 291137Z 16010KT 22/21 A2973 RMK A01 T02170206  RH  094%=      5-min Rain = 0
KCL2 291138Z 16011KT 22/21 A2973 RMK A01 T02170206  RH  093%=      5-min Rain = 0
KCL2 291139Z 16011KT 22/21 A2973 RMK A01 T02170205  RH  093%=      5-min Rain = 0
KCL2 291140Z 15010KT 22/21 A2972 RMK A01 T02170205  RH  093%=      5-min Rain = 0
KCL2 291141Z 16009KT 22/21 A2972 RMK A01 T02170205  RH  093%=      5-min Rain = 0
KCL2 291142Z 15010KT 22/21 A2972 RMK A01 T02170205  RH  093%=      5-min Rain = 0
KCL2 291143Z 16010KT 22/21 A2972 RMK A01 T02170205  RH  093%=      5-min Rain = 0
KCL2 291144Z 15011KT 22/21 A2972 RMK A01 T02170205  RH  093%=      5-min Rain = 0
KCL2 291145Z 16010KT 22/21 A2972 RMK A01 T02170205  RH  093%=      5-min Rain = 0
KCL2 291146Z 15009KT 22/21 A2972 RMK A01 T02170205  RH  093%=      5-min Rain = 0
KCL2 291147Z 16007KT 22/21 A2973 RMK A01 T02170205  RH  093%=      5-min Rain = 0
KCL2 291148Z 16010G15KT 22/21 A2973 RMK A01 T02170205  RH  093%=      5-min Rain = 0
KCL2 291149Z 15009KT 22/21 A2973 RMK A01 T02170205  RH  093%=      5-min Rain = 0
KCL2 291150Z 15011KT 22/21 A2973 RMK A01 T02170205  RH  093%=      5-min Rain = 0
KCL2 291151Z 16010KT 22/21 A2973 RMK A01 T02180205  RH  092%=      5-min Rain = 0
KCL2 291152Z 16010KT 22/21 A2973 RMK A01 T02180205  RH  092%=      5-min Rain = 0
KCL2 291153Z 16009KT 22/21 A2973 RMK A01 T02180205  RH  092%=      5-min Rain = 0
KCL2 291154Z 15008KT 22/21 A2973 RMK A01 T02180205  RH  092%=      5-min Rain = 0
KCL2 291155Z 16008KT 22/21 A2974 RMK A01 T02180205  RH  092%=      5-min Rain = 0
KCL2 291156Z 16009KT 22/20 A2974 RMK A01 T02180204  RH  092%=      5-min Rain = 0
KCL2 291157Z 16010KT 22/20 A2974 RMK A01 T02180204  RH  092%=      5-min Rain = 0
KCL2 291158Z 17010KT 22/20 A2974 RMK A01 T02180204  RH  092%=      5-min Rain = 0
KCL2 291159Z 16010KT 22/20 A2974 RMK A01 T02180204  RH  091%=      5-min Rain = 0
KCL2 291200Z 16011KT 22/20 A2974 RMK A01 T02180203  RH  091%=      5-min Rain = 0
KCL2 291201Z 16011KT 22/20 A2973 RMK A01 T02190203  RH  091%=      5-min Rain = 0
KCL2 291202Z 16010KT 22/20 A2973 RMK A01 T02190203  RH  091%=      5-min Rain = 0
KCL2 291203Z 16011KT 22/20 A2973 RMK A01 T02190203  RH  090%=      5-min Rain = 0
KCL2 291204Z 16014KT 22/20 A2973 RMK A01 T02190202  RH  090%=      5-min Rain = 0
KCL2 291205Z 16011KT 22/20 A2973 RMK A01 T02190201  RH  090%=      5-min Rain = 0
KCL2 291206Z 16012KT 22/20 A2973 RMK A01 T02200202  RH  089%=      5-min Rain = 0
KCL2 291207Z 16013KT 22/20 A2973 RMK A01 T02200201  RH  089%=      5-min Rain = 0
KCL2 291208Z 16010KT 22/20 A2973 RMK A01 T02200201  RH  089%=      5-min Rain = 0
KCL2 291209Z 17010KT 22/20 A2973 RMK A01 T02200201  RH  089%=      5-min Rain = 0
KCL2 291210Z 17010G15KT 22/20 A2973 RMK A01 T02190201  RH  089%=      5-min Rain = 0
KCL2 291211Z 16010KT 22/20 A2974 RMK A01 T02200201  RH  089%=      5-min Rain = 0
KCL2 291212Z 17010KT 22/20 A2974 RMK A01 T02200201  RH  089%=      5-min Rain = 0
KCL2 291213Z 17010KT 22/20 A2974 RMK A01 T02200200  RH  089%=      5-min Rain = 0
KCL2 291214Z 16010KT 22/20 A2974 RMK A01 T02200200  RH  089%=      5-min Rain = 0
KCL2 291215Z 16010KT 22/20 A2974 RMK A01 T02200200  RH  089%=      5-min Rain = 0
KCL2 291216Z 16009KT 22/20 A2974 RMK A01 T02200200  RH  088%=      5-min Rain = 0
KCL2 291217Z 15010KT 22/20 A2974 RMK A01 T02200200  RH  088%=      5-min Rain = 0
KCL2 291218Z 15012KT 22/20 A2973 RMK A01 T02200199  RH  088%=      5-min Rain = 0
KCL2 291219Z 14010KT 22/20 A2973 RMK A01 T02200199  RH  088%=      5-min Rain = 0
KCL2 291220Z 14012KT 22/20 A2972 RMK A01 T02200199  RH  088%=      5-min Rain = 0
KCL2 291221Z 15013KT 22/20 A2972 RMK A01 T02200199  RH  088%=      5-min Rain = 0
KCL2 291222Z 15014KT 22/20 A2973 RMK A01 T02200198  RH  087%=      5-min Rain = 0
KCL2 291223Z 16013KT 22/20 A2973 RMK A01 T02200198  RH  087%=      5-min Rain = 0
KCL2 291224Z 15014KT 22/20 A2973 RMK A01 T02200198  RH  087%=      5-min Rain = 0
KCL2 291225Z 16012KT 22/20 A2973 RMK A01 T02200197  RH  087%=      5-min Rain = 0
KCL2 291226Z 16011G16KT 22/20 A2973 RMK A01 T02200198  RH  087%=      5-min Rain = 0
KCL2 291227Z 16010KT 22/20 A2973 RMK A01 T02200198  RH  087%=      5-min Rain = 0
KCL2 291228Z 16012KT 22/20 A2974 RMK A01 T02200198  RH  087%=      5-min Rain = 0
KCL2 291229Z 16010KT 22/20 A2974 RMK A01 T02200197  RH  087%=      5-min Rain = 0
KCL2 291230Z 16011KT 22/20 A2974 RMK A01 T02200198  RH  087%=      5-min Rain = 0
KCL2 291231Z 17011G16KT 22/20 A2974 RMK A01 T02200198  RH  087%=      5-min Rain = 0
KCL2 291232Z 17011KT 22/20 A2974 RMK A01 T02200197  RH  087%=      5-min Rain = 0
KCL2 291233Z 17009KT 22/20 A2974 RMK A01 T02200197  RH  087%=      5-min Rain = 0
KCL2 291234Z 17010KT 22/20 A2974 RMK A01 T02200197  RH  087%=      5-min Rain = 0
KCL2 291235Z 16009KT 22/20 A2974 RMK A01 T02190197  RH  087%=      5-min Rain = 0
KCL2 291236Z 17010KT 22/20 A2974 RMK A01 T02190196  RH  087%=      5-min Rain = 0
KCL2 291237Z 17010KT 22/20 A2974 RMK A01 T02190196  RH  087%=      5-min Rain = 0
KCL2 291238Z 17012KT 22/20 A2974 RMK A01 T02190196  RH  086%=      5-min Rain = 0
KCL2 291239Z 16011KT 22/20 A2973 RMK A01 T02190195  RH  086%=      5-min Rain = 0
KCL2 291240Z 16014KT 22/20 A2973 RMK A01 T02190195  RH  086%=      5-min Rain = 0
KCL2 291241Z 17015KT 22/19 A2972 RMK A01 T02190194  RH  086%=      5-min Rain = 0
KCL2 291242Z 17012KT 22/19 A2972 RMK A01 T02190194  RH  085%=      5-min Rain = 0
KCL2 291243Z 17013G18KT 22/20 A2972 RMK A01 T02200195  RH  086%=      5-min Rain = 0
KCL2 291244Z 17012KT 22/20 A2972 RMK A01 T02200195  RH  086%=      5-min Rain = 0
KCL2 291245Z 17013KT 22/19 A2972 RMK A01 T02190194  RH  086%=      5-min Rain = 0
KCL2 291246Z 17012KT 22/19 A2973 RMK A01 T02190194  RH  085%=      5-min Rain = 0
KCL2 291247Z 18011KT 22/19 A2973 RMK A01 T02190194  RH  085%=      5-min Rain = 0
KCL2 291248Z 18013KT 22/19 A2974 RMK A01 T02190194  RH  086%=      5-min Rain = 0
KCL2 291249Z 18015KT 22/19 A2974 RMK A01 T02190194  RH  085%=      5-min Rain = 0
KCL2 291250Z 18014KT 22/19 A2974 RMK A01 T02190193  RH  085%=      5-min Rain = 0
KCL2 291251Z 19011KT 22/19 A2975 RMK A01 T02190194  RH  085%=      5-min Rain = 0
KCL2 291252Z 19013KT 22/19 A2976 RMK A01 T02190194  RH  086%=      5-min Rain = 0
KCL2 291253Z 22012G17KT 22/19 A2977 RMK A01 T02190194  RH  086%=      5-min Rain = 0
KCL2 291254Z 24022G32KT 22/20 A2979 RMK A01 T02190195  RH  086%=      5-min Rain = 0
KCL2 291255Z 28032G49KT 21/17 A2978 RMK A01 T02120173  RH  078%=      5-min Rain = 0
KCL2 291256Z 29027G32KT 20/16 A298 RMK A01 T01990161  RH  079%=      5-min Rain = 0
KCL2 291257Z 29019G27KT 19/16 A298 RMK A01 T01860155  RH  082%=      5-min Rain = 0
KCL2 291258Z 29014KT 18/15 A298 RMK A01 T01750152  RH  087%=      5-min Rain = 0.03
KCL2 291259Z 29017KT 17/15 A298 RMK A01 T01680151  RH  090%=      5-min Rain = 0.04
KCL2 291300Z 29018KT 16/15 A298 RMK A01 T01630150  RH  092%=      5-min Rain = 0.04
KCL2 291301Z 29019G25KT 16/15 A2981 RMK A01 T01600149  RH  094%=      5-min Rain = 0.02
KCL2 291302Z 29016G21KT 16/15 A2981 RMK A01 T01570149  RH  095%=      5-min Rain = 0.03
KCL2 291303Z 30016KT 16/15 A2981 RMK A01 T01560149  RH  096%=      5-min Rain = 0.04
KCL2 291304Z 30015KT 15/15 A2981 RMK A01 T01540148  RH  096%=      5-min Rain = 0.05
KCL2 291305Z 32016G21KT 15/15 A2981 RMK A01 T01520147  RH  097%=      5-min Rain = 0.05
KCL2 291306Z 32020KT 15/15 A2981 RMK A01 T01500146  RH  097%=      5-min Rain = 0.07
KCL2 291307Z 32018G24KT 15/14 A2981 RMK A01 T01490144  RH  097%=      5-min Rain = 0.04
KCL2 291308Z 31023G31KT 15/14 A2979 RMK A01 T01470143  RH  097%=      5-min Rain = 0.05
KCL2 291309Z 32018KT 15/14 A2979 RMK A01 T01460142  RH  098%=      5-min Rain = 0.07
KCL2 291310Z 33020KT 15/14 A2979 RMK A01 T01450142  RH  098%=      5-min Rain = 0.03
KCL2 291311Z 33019KT 14/14 A2979 RMK A01 T01440141  RH  098%=      5-min Rain = 0.02
KCL2 291312Z 34017G24KT 14/14 A2978 RMK A01 T01440142  RH  098%=      5-min Rain = 0.03
KCL2 291313Z 34020KT 14/14 A2977 RMK A01 T01440142  RH  099%=      5-min Rain = 0.03
KCL2 291314Z 34020KT 14/14 A2977 RMK A01 T01440142  RH  099%=      5-min Rain = 0.03
KCL2 291315Z 34017KT 14/14 A2977 RMK A01 T01440143  RH  099%=      5-min Rain = 0.02
KCL2 291316Z 34018G23KT 15/14 A2978 RMK A01 T01450144  RH  099%=      5-min Rain = 0.01
KCL2 291317Z 34018KT 15/14 A2978 RMK A01 T01450144  RH  099%=      5-min Rain = 0
KCL2 291318Z 33014KT 15/15 A2979 RMK A01 T01460145  RH  099%=      5-min Rain = 0
KCL2 291319Z 32015KT 15/15 A2979 RMK A01 T01460145  RH  099%=      5-min Rain = 0.01
KCL2 291320Z 31015G21KT 15/15 A298 RMK A01 T01470145  RH  099%=      5-min Rain = 0
KCL2 291321Z 30015KT 15/15 A2982 RMK A01 T01470146  RH  099%=      5-min Rain = 0
KCL2 291322Z 30016KT 15/15 A2983 RMK A01 T01470146  RH  099%=      5-min Rain = 0.01
KCL2 291323Z 30018G24KT 15/15 A2983 RMK A01 T01470146  RH  099%=      5-min Rain = 0.01
KCL2 291324Z 29021KT 15/15 A2984 RMK A01 T01480147  RH  099%=      5-min Rain = 0.02
KCL2 291325Z 30021KT 15/15 A2984 RMK A01 T01480148  RH  099%=      5-min Rain = 0.03
KCL2 291326Z 30019G24KT 15/15 A2984 RMK A01 T01490148  RH  099%=      5-min Rain = 0.02
KCL2 291327Z 30020KT 15/15 A2984 RMK A01 T01490148  RH  099%=      5-min Rain = 0.04
KCL2 291328Z 30020G25KT 15/15 A2984 RMK A01 T01490148  RH  099%=      5-min Rain = 0.04
KCL2 291329Z 30021G26KT 15/15 A2984 RMK A01 T01490148  RH  099%=      5-min Rain = 0.04
KCL2 291330Z 30019G24KT 15/15 A2984 RMK A01 T01490149  RH  099%=      5-min Rain = 0.02
KCL2 291331Z 32015KT 15/15 A2983 RMK A01 T01500149  RH  100%=      5-min Rain = 0.01
KCL2 291332Z 31017KT 15/15 A2983 RMK A01 T01500149  RH  100%=      5-min Rain = 0.01
KCL2 291333Z 32011KT 15/15 A2983 RMK A01 T01500149  RH  099%=      5-min Rain = 0.02
KCL2 291334Z 33016KT 15/15 A2982 RMK A01 T01500150  RH  100%=      5-min Rain = 0.01
KCL2 291335Z 33014KT 15/15 A2982 RMK A01 T01500150  RH  100%=      5-min Rain = 0.01
KCL2 291336Z 33012KT 15/15 A2981 RMK A01 T01500150  RH  100%=      5-min Rain = 0
KCL2 291337Z 33013KT 15/15 A2982 RMK A01 T01500150  RH  100%=      5-min Rain = 0.01
KCL2 291338Z 33012KT 15/15 A2982 RMK A01 T01510150  RH  100%=      5-min Rain = 0.02
KCL2 291339Z 32013KT 15/15 A2982 RMK A01 T01510150  RH  100%=      5-min Rain = 0.01
KCL2 291340Z 33012KT 15/15 A2982 RMK A01 T01510150  RH  100%=      5-min Rain = 0
KCL2 291341Z 32010KT 15/15 A2982 RMK A01 T01510150  RH  100%=      5-min Rain = 0
KCL2 291342Z 32012KT 15/15 A2983 RMK A01 T01510151  RH  100%=      5-min Rain = 0.01
KCL2 291343Z 32010KT 15/15 A2983 RMK A01 T01510150  RH  100%=      5-min Rain = 0
KCL2 291344Z 33010KT 15/15 A2982 RMK A01 T01510151  RH  100%=      5-min Rain = 0
KCL2 291345Z 34010KT 15/15 A2981 RMK A01 T01510151  RH  100%=      5-min Rain = 0.01
KCL2 291346Z 35009KT 15/15 A2981 RMK A01 T01510151  RH  100%=      5-min Rain = 0
KCL2 291347Z 35009KT 15/15 A298 RMK A01 T01520151  RH  100%=      5-min Rain = 0.02
KCL2 291348Z 36009KT 15/15 A298 RMK A01 T01520151  RH  100%=      5-min Rain = 0.01
KCL2 291349Z 35008KT 15/15 A298 RMK A01 T01520152  RH  100%=      5-min Rain = 0
KCL2 291350Z 35008KT 15/15 A298 RMK A01 T01520152  RH  100%=      5-min Rain = 0.01
KCL2 291351Z 36007KT 15/15 A298 RMK A01 T01530153  RH  100%=      5-min Rain = 0
KCL2 291352Z 36008KT 15/15 A298 RMK A01 T01530153  RH  100%=      5-min Rain = 0
KCL2 291353Z 36006KT 15/15 A298 RMK A01 T01530153  RH  100%=      5-min Rain = 0
KCL2 291354Z 36007KT 15/15 A298 RMK A01 T01530153  RH  100%=      5-min Rain = 0
KCL2 291355Z 36008KT 15/15 A298 RMK A01 T01540153  RH  100%=      5-min Rain = 0
KCL2 291356Z 01006KT 15/15 A2979 RMK A01 T01540153  RH  100%=      5-min Rain = 0
KCL2 291357Z 00007KT 15/15 A2979 RMK A01 T01540154  RH  100%=      5-min Rain = 0
KCL2 291358Z 01007KT 16/15 A2979 RMK A01 T01550154  RH  100%=      5-min Rain = 0
KCL2 291359Z 01006KT 16/16 A2979 RMK A01 T01550155  RH  100%=      5-min Rain = 0
KCL2 291400Z 02006KT 16/16 A2979 RMK A01 T01550155  RH  100%=      5-min Rain = 0
KCL2 291401Z 00006KT 16/16 A2979 RMK A01 T01560156  RH  100%=      5-min Rain = 0
KCL2 291402Z 00007KT 16/16 A2979 RMK A01 T01570156  RH  100%=      5-min Rain = 0
KCL2 291403Z 01008KT 16/16 A2979 RMK A01 T01570157  RH  100%=      5-min Rain = 0
KCL2 291404Z 01008KT 16/16 A2979 RMK A01 T01570157  RH  100%=      5-min Rain = 0
KCL2 291405Z 01007KT 16/16 A2979 RMK A01 T01570156  RH  100%=      5-min Rain = 0
KCL2 291406Z 01006KT 16/16 A2979 RMK A01 T01570156  RH  100%=      5-min Rain = 0
KCL2 291407Z 01005KT 16/16 A2979 RMK A01 T01570156  RH  100%=      5-min Rain = 0
KCL2 291408Z 00006KT 16/16 A2979 RMK A01 T01580158  RH  100%=      5-min Rain = 0
KCL2 291409Z 01006KT 16/16 A2978 RMK A01 T01590158  RH  100%=      5-min Rain = 0
KCL2 291410Z 01004KT 16/16 A2978 RMK A01 T01590159  RH  100%=      5-min Rain = 0
KCL2 291411Z 01004KT 16/16 A2979 RMK A01 T01590158  RH  100%=      5-min Rain = 0
KCL2 291412Z 00003KT 16/16 A2979 RMK A01 T01590158  RH  100%=      5-min Rain = 0
KCL2 291413Z 02003KT 16/16 A2979 RMK A01 T01590158  RH  100%=      5-min Rain = 0
KCL2 291414Z 04003KT 16/16 A2979 RMK A01 T01590158  RH  100%=      5-min Rain = 0
KCL2 291415Z 05002KT 16/16 A2979 RMK A01 T01580158  RH  100%=      5-min Rain = 0
KCL2 291416Z 09001KT 16/16 A2979 RMK A01 T01580157  RH  100%=      5-min Rain = 0
KCL2 291417Z 11001KT 16/16 A2979 RMK A01 T01580157  RH  100%=      5-min Rain = 0
KCL2 291418Z 11001KT 16/16 A2979 RMK A01 T01590158  RH  100%=      5-min Rain = 0
KCL2 291419Z 12000KT 16/16 A2979 RMK A01 T01590158  RH  100%=      5-min Rain = 0
KCL2 291420Z 06001KT 16/16 A2979 RMK A01 T01590158  RH  100%=      5-min Rain = 0
KCL2 291421Z 05001KT 16/16 A2979 RMK A01 T01590159  RH  100%=      5-min Rain = 0
KCL2 291422Z 04001KT 16/16 A2979 RMK A01 T01600159  RH  100%=      5-min Rain = 0
KCL2 291423Z 02001KT 16/16 A2979 RMK A01 T01600160  RH  100%=      5-min Rain = 0
KCL2 291424Z 03001KT 16/16 A2979 RMK A01 T01610160  RH  100%=      5-min Rain = 0
KCL2 291425Z 00001KT 16/16 A2979 RMK A01 T01610161  RH  100%=      5-min Rain = 0
KCL2 291426Z 35001KT 16/16 A2979 RMK A01 T01620161  RH  100%=      5-min Rain = 0
KCL2 291427Z 01001KT 16/16 A2979 RMK A01 T01610161  RH  099%=      5-min Rain = 0
KCL2 291428Z 01001KT 16/16 A2979 RMK A01 T01610160  RH  099%=      5-min Rain = 0
KCL2 291429Z 02001KT 16/16 A2979 RMK A01 T01600159  RH  099%=      5-min Rain = 0
KCL2 291430Z 05000KT 16/16 A2979 RMK A01 T01600159  RH  099%=      5-min Rain = 0
KCL2 291431Z 16001KT 16/16 A2979 RMK A01 T01600159  RH  099%=      5-min Rain = 0
KCL2 291432Z 14001KT 16/16 A2979 RMK A01 T01600159  RH  099%=      5-min Rain = 0
KCL2 291433Z 14001KT 16/16 A298 RMK A01 T01610160  RH  099%=      5-min Rain = 0
KCL2 291434Z 13002KT 16/16 A298 RMK A01 T01620160  RH  099%=      5-min Rain = 0
KCL2 291435Z 13002KT 16/16 A298 RMK A01 T01630162  RH  099%=      5-min Rain = 0
KCL2 291436Z 12003KT 16/16 A298 RMK A01 T01640163  RH  099%=      5-min Rain = 0
KCL2 291437Z 11002KT 16/16 A298 RMK A01 T01640162  RH  099%=      5-min Rain = 0
KCL2 291438Z 11002KT 16/16 A298 RMK A01 T01640162  RH  099%=      5-min Rain = 0
KCL2 291439Z 11003KT 16/16 A2979 RMK A01 T01640161  RH  099%=      5-min Rain = 0
KCL2 291440Z 12003KT 16/16 A2979 RMK A01 T01630160  RH  098%=      5-min Rain = 0
KCL2 291441Z 12003KT 16/16 A2979 RMK A01 T01630161  RH  098%=      5-min Rain = 0
KCL2 291442Z 10003KT 17/16 A2979 RMK A01 T01650163  RH  099%=      5-min Rain = 0
KCL2 291443Z 09003KT 17/16 A2979 RMK A01 T01660163  RH  098%=      5-min Rain = 0
KCL2 291444Z 08003KT 17/16 A2979 RMK A01 T01650162  RH  098%=      5-min Rain = 0
KCL2 291445Z 09002KT 16/16 A2979 RMK A01 T01640160  RH  097%=      5-min Rain = 0
KCL2 291446Z 10002KT 16/16 A2979 RMK A01 T01640159  RH  097%=      5-min Rain = 0
KCL2 291447Z 10003KT 17/16 A2979 RMK A01 T01650160  RH  097%=      5-min Rain = 0
KCL2 291448Z 09004KT 17/16 A2979 RMK A01 T01650160  RH  097%=      5-min Rain = 0
KCL2 291449Z 09004KT 17/16 A2978 RMK A01 T01650160  RH  097%=      5-min Rain = 0
KCL2 291450Z 09005KT 17/16 A2978 RMK A01 T01660161  RH  097%=      5-min Rain = 0
KCL2 291451Z 11005KT 17/16 A2978 RMK A01 T01670161  RH  096%=      5-min Rain = 0
KCL2 291452Z 11005KT 17/16 A2979 RMK A01 T01670162  RH  097%=      5-min Rain = 0
KCL2 291453Z 11005KT 17/16 A2979 RMK A01 T01680164  RH  097%=      5-min Rain = 0
KCL2 291454Z 12004KT 17/17 A2979 RMK A01 T01690165  RH  097%=      5-min Rain = 0
KCL2 291455Z 13003KT 17/17 A2979 RMK A01 T01700166  RH  097%=      5-min Rain = 0
KCL2 291456Z 14003KT 17/17 A2979 RMK A01 T01700166  RH  097%=      5-min Rain = 0
KCL2 291457Z 15003KT 17/17 A2979 RMK A01 T01700166  RH  097%=      5-min Rain = 0
KCL2 291458Z 16003KT 17/16 A298 RMK A01 T01690164  RH  097%=      5-min Rain = 0
KCL2 291459Z 19003KT 17/16 A298 RMK A01 T01680162  RH  097%=      5-min Rain = 0
KCL2 291500Z 22003KT 17/16 A2981 RMK A01 T01680163  RH  097%=      5-min Rain = 0
KCL2 291501Z 24004KT 17/16 A2981 RMK A01 T01680163  RH  097%=      5-min Rain = 0
KCL2 291502Z 24005KT 17/16 A2981 RMK A01 T01680162  RH  097%=      5-min Rain = 0
KCL2 291503Z 26005KT 17/16 A2981 RMK A01 T01680163  RH  097%=      5-min Rain = 0
KCL2 291504Z 27006KT 17/16 A2982 RMK A01 T01680164  RH  097%=      5-min Rain = 0
KCL2 291505Z 27006KT 17/17 A2982 RMK A01 T01690165  RH  097%=      5-min Rain = 0
KCL2 291506Z 28006KT 17/17 A2982 RMK A01 T01700166  RH  097%=      5-min Rain = 0
KCL2 291507Z 28006KT 17/17 A2982 RMK A01 T01700166  RH  097%=      5-min Rain = 0
KCL2 291508Z 28006KT 17/17 A2982 RMK A01 T01700165  RH  097%=      5-min Rain = 0
KCL2 291509Z 30005KT 17/16 A2982 RMK A01 T01690164  RH  097%=      5-min Rain = 0
KCL2 291510Z 32004KT 17/16 A2982 RMK A01 T01690164  RH  097%=      5-min Rain = 0
KCL2 291511Z 34005KT 17/16 A2982 RMK A01 T01690164  RH  097%=      5-min Rain = 0
KCL2 291512Z 35005KT 17/16 A2981 RMK A01 T01690164  RH  097%=      5-min Rain = 0.01
KCL2 291513Z 01004KT 17/16 A2981 RMK A01 T01690163  RH  096%=      5-min Rain = 0
KCL2 291514Z 01004KT 17/16 A298 RMK A01 T01680163  RH  097%=      5-min Rain = 0
KCL2 291515Z 03004KT 17/16 A298 RMK A01 T01690163  RH  096%=      5-min Rain = 0.01
KCL2 291516Z 03004KT 17/16 A298 RMK A01 T01680163  RH  096%=      5-min Rain = 0
KCL2 291517Z 04005KT 17/16 A298 RMK A01 T01690162  RH  096%=      5-min Rain = 0
KCL2 291518Z 05005KT 17/16 A298 RMK A01 T01680159  RH  095%=      5-min Rain = 0
KCL2 291519Z 04004KT 17/16 A298 RMK A01 T01670159  RH  095%=      5-min Rain = 0
KCL2 291520Z 04005KT 17/16 A2979 RMK A01 T01680160  RH  095%=      5-min Rain = 0
KCL2 291521Z 04006KT 17/16 A298 RMK A01 T01680160  RH  095%=      5-min Rain = 0
KCL2 291522Z 04003KT 17/16 A298 RMK A01 T01680161  RH  096%=      5-min Rain = 0
KCL2 291523Z 02002KT 17/16 A2981 RMK A01 T01690162  RH  096%=      5-min Rain = 0
KCL2 291524Z 33000KT 17/16 A2981 RMK A01 T01680160  RH  095%=      5-min Rain = 0
KCL2 291525Z 27002KT 17/16 A2982 RMK A01 T01660158  RH  095%=      5-min Rain = 0
KCL2 291526Z 26005KT 17/16 A2984 RMK A01 T01660159  RH  095%=      5-min Rain = 0
KCL2 291527Z 27009KT 17/16 A2985 RMK A01 T01670160  RH  096%=      5-min Rain = 0
KCL2 291528Z 27012KT 17/16 A2987 RMK A01 T01670160  RH  096%=      5-min Rain = 0
KCL2 291529Z 27015KT 17/16 A2988 RMK A01 T01670161  RH  096%=      5-min Rain = 0
KCL2 291530Z 28017KT 17/16 A2988 RMK A01 T01680162  RH  096%=      5-min Rain = 0.02
KCL2 291531Z 28017KT 17/16 A2988 RMK A01 T01680161  RH  096%=      5-min Rain = 0
KCL2 291532Z 28014KT 17/16 A2988 RMK A01 T01680162  RH  097%=      5-min Rain = 0
KCL2 291533Z 28012KT 17/16 A2987 RMK A01 T01680163  RH  097%=      5-min Rain = 0.01
KCL2 291534Z 27008G13KT 17/16 A2986 RMK A01 T01670163  RH  097%=      5-min Rain = 0.03
KCL2 291535Z 28004KT 17/16 A2985 RMK A01 T01670162  RH  097%=      5-min Rain = 0.03
KCL2 291536Z 27006KT 17/16 A2985 RMK A01 T01660162  RH  097%=      5-min Rain = 0.01
KCL2 291537Z 26009KT 17/16 A2986 RMK A01 T01650161  RH  097%=      5-min Rain = 0.01
KCL2 291538Z 27010KT 17/16 A2987 RMK A01 T01650161  RH  098%=      5-min Rain = 0.01
KCL2 291539Z 28011KT 17/16 A2987 RMK A01 T01650162  RH  098%=      5-min Rain = 0
KCL2 291540Z 29010KT 17/16 A2987 RMK A01 T01650162  RH  098%=      5-min Rain = 0.02
KCL2 291541Z 29009KT 17/16 A2986 RMK A01 T01650162  RH  098%=      5-min Rain = 0.01
KCL2 291542Z 29008KT 17/16 A2986 RMK A01 T01650162  RH  098%=      5-min Rain = 0
KCL2 291543Z 30008KT 17/16 A2985 RMK A01 T01650162  RH  098%=      5-min Rain = 0.01
KCL2 291544Z 31010G15KT 16/16 A2985 RMK A01 T01640162  RH  098%=      5-min Rain = 0
KCL2 291545Z 31011KT 17/16 A2985 RMK A01 T01650162  RH  099%=      5-min Rain = 0.01
KCL2 291546Z 31012KT 16/16 A2986 RMK A01 T01640162  RH  099%=      5-min Rain = 0
KCL2 291547Z 30012KT 16/16 A2986 RMK A01 T01640162  RH  099%=      5-min Rain = 0
KCL2 291548Z 31013KT 16/16 A2986 RMK A01 T01640161  RH  099%=      5-min Rain = 0.01
KCL2 291549Z 33011KT 16/16 A2986 RMK A01 T01630160  RH  098%=      5-min Rain = 0
KCL2 291550Z 33009KT 16/16 A2985 RMK A01 T01620160  RH  098%=      5-min Rain = 0
KCL2 291551Z 34009KT 16/16 A2984 RMK A01 T01620159  RH  098%=      5-min Rain = 0
KCL2 291552Z 00008KT 16/16 A2984 RMK A01 T01610158  RH  098%=      5-min Rain = 0.02
KCL2 291553Z 35008KT 16/16 A2983 RMK A01 T01610159  RH  098%=      5-min Rain = 0
KCL2 291554Z 34008KT 16/16 A2984 RMK A01 T01610159  RH  098%=      5-min Rain = 0
KCL2 291555Z 33007KT 16/16 A2984 RMK A01 T01610159  RH  098%=      5-min Rain = 0.01
KCL2 291556Z 33007KT 16/16 A2984 RMK A01 T01610158  RH  098%=      5-min Rain = 0
KCL2 291557Z 34008KT 16/16 A2984 RMK A01 T01610158  RH  098%=      5-min Rain = 0
KCL2 291558Z 35009KT 16/16 A2984 RMK A01 T01610158  RH  098%=      5-min Rain = 0
KCL2 291559Z 35008KT 16/16 A2983 RMK A01 T01600157  RH  098%=      5-min Rain = 0
KCL2 291600Z 35007KT 16/16 A2983 RMK A01 T01600157  RH  098%=      5-min Rain = 0
KCL2 291601Z 35009KT 16/16 A2983 RMK A01 T01600157  RH  098%=      5-min Rain = 0
KCL2 291602Z 35009KT 16/16 A2983 RMK A01 T01600157  RH  098%=      5-min Rain = 0.01
KCL2 291603Z 35009KT 16/16 A2983 RMK A01 T01600157  RH  098%=      5-min Rain = 0
KCL2 291604Z 35009KT 16/16 A2983 RMK A01 T01600157  RH  098%=      5-min Rain = 0
KCL2 291605Z 36008KT 16/16 A2983 RMK A01 T01600157  RH  098%=      5-min Rain = 0
KCL2 291606Z 36008KT 16/16 A2982 RMK A01 T01600157  RH  098%=      5-min Rain = 0
KCL2 291607Z 01006KT 16/16 A2982 RMK A01 T01600157  RH  098%=      5-min Rain = 0
KCL2 291608Z 02003KT 16/16 A2982 RMK A01 T01600157  RH  098%=      5-min Rain = 0
KCL2 291609Z 03005KT 16/16 A2982 RMK A01 T01610158  RH  098%=      5-min Rain = 0
KCL2 291610Z 02006KT 16/16 A2982 RMK A01 T01610158  RH  098%=      5-min Rain = 0
KCL2 291611Z 02007KT 16/16 A2982 RMK A01 T01610158  RH  098%=      5-min Rain = 0
KCL2 291612Z 01008KT 16/16 A2981 RMK A01 T01610158  RH  098%=      5-min Rain = 0
KCL2 291613Z 00010KT 16/16 A2981 RMK A01 T01610158  RH  098%=      5-min Rain = 0
KCL2 291614Z 35011KT 16/16 A2981 RMK A01 T01610158  RH  098%=      5-min Rain = 0
KCL2 291615Z 35012KT 16/16 A2981 RMK A01 T01610157  RH  098%=      5-min Rain = 0
KCL2 291616Z 35013KT 16/16 A2981 RMK A01 T01610157  RH  098%=      5-min Rain = 0
KCL2 291617Z 34011KT 16/16 A2981 RMK A01 T01610157  RH  097%=      5-min Rain = 0
KCL2 291618Z 34010KT 16/16 A2981 RMK A01 T01610157  RH  097%=      5-min Rain = 0
KCL2 291619Z 34008KT 16/16 A2982 RMK A01 T01610156  RH  097%=      5-min Rain = 0
KCL2 291620Z 34009KT 16/16 A2982 RMK A01 T01610157  RH  097%=      5-min Rain = 0
KCL2 291621Z 01008KT 16/16 A2982 RMK A01 T01610156  RH  097%=      5-min Rain = 0
KCL2 291622Z 01009KT 16/16 A2981 RMK A01 T01610156  RH  097%=      5-min Rain = 0
KCL2 291623Z 01010KT 16/16 A2981 RMK A01 T01610156  RH  097%=      5-min Rain = 0
KCL2 291624Z 01009KT 16/16 A298 RMK A01 T01610156  RH  097%=      5-min Rain = 0
KCL2 291625Z 02010KT 16/16 A298 RMK A01 T01610156  RH  097%=      5-min Rain = 0
KCL2 291626Z 02012KT 16/16 A2979 RMK A01 T01610156  RH  097%=      5-min Rain = 0
KCL2 291627Z 01012KT 16/16 A2979 RMK A01 T01610156  RH  097%=      5-min Rain = 0.01
KCL2 291628Z 00012KT 16/16 A2979 RMK A01 T01610156  RH  097%=      5-min Rain = 0
KCL2 291629Z 35012G17KT 16/16 A2981 RMK A01 T01610156  RH  097%=      5-min Rain = 0
KCL2 291630Z 32009KT 16/16 A2983 RMK A01 T01610156  RH  097%=      5-min Rain = 0
KCL2 291631Z 30009KT 16/16 A2985 RMK A01 T01600155  RH  097%=      5-min Rain = 0.01
KCL2 291632Z 28009KT 16/16 A2986 RMK A01 T01600155  RH  097%=      5-min Rain = 0
KCL2 291633Z 29006KT 16/16 A2986 RMK A01 T01600155  RH  097%=      5-min Rain = 0.02
KCL2 291634Z 33005KT 16/16 A2984 RMK A01 T01600155  RH  097%=      5-min Rain = 0.03
KCL2 291635Z 01010KT 16/16 A2981 RMK A01 T01600155  RH  097%=      5-min Rain = 0.04
KCL2 291636Z 03013KT 16/16 A2979 RMK A01 T01590155  RH  097%=      5-min Rain = 0.05
KCL2 291637Z 02010KT 16/16 A2978 RMK A01 T01590155  RH  097%=      5-min Rain = 0.07
KCL2 291638Z 03007KT 16/16 A298 RMK A01 T01580155  RH  098%=      5-min Rain = 0.08
KCL2 291639Z 04002KT 16/16 A2983 RMK A01 T01580155  RH  098%=      5-min Rain = 0.04
KCL2 291640Z 28003KT 16/16 A2985 RMK A01 T01570155  RH  098%=      5-min Rain = 0.03
KCL2 291641Z 25004KT 16/15 A2986 RMK A01 T01570154  RH  098%=      5-min Rain = 0.01
KCL2 291642Z 24004KT 16/15 A2987 RMK A01 T01560154  RH  098%=      5-min Rain = 0.01
KCL2 291643Z 22003KT 16/15 A2987 RMK A01 T01550153  RH  099%=      5-min Rain = 0
KCL2 291644Z 10001KT 16/15 A2986 RMK A01 T01550153  RH  099%=      5-min Rain = 0
KCL2 291645Z 05003KT 16/15 A2985 RMK A01 T01550153  RH  099%=      5-min Rain = 0.01
KCL2 291646Z 05007KT 16/15 A2983 RMK A01 T01550153  RH  099%=      5-min Rain = 0.01
KCL2 291647Z 06011KT 16/15 A2981 RMK A01 T01550153  RH  099%=      5-min Rain = 0.04
KCL2 291648Z 05013KT 16/15 A298 RMK A01 T01560154  RH  099%=      5-min Rain = 0.04
KCL2 291649Z 05013KT 16/15 A298 RMK A01 T01560154  RH  099%=      5-min Rain = 0.04
KCL2 291650Z 04009KT 16/15 A2981 RMK A01 T01550154  RH  099%=      5-min Rain = 0.03
KCL2 291651Z 02005KT 16/15 A2981 RMK A01 T01550153  RH  099%=      5-min Rain = 0
KCL2 291652Z 03005KT 16/15 A2981 RMK A01 T01550153  RH  099%=      5-min Rain = 0.01
KCL2 291653Z 03006KT 16/15 A2981 RMK A01 T01560154  RH  099%=      5-min Rain = 0
KCL2 291654Z 04008KT 16/16 A2981 RMK A01 T01560155  RH  099%=      5-min Rain = 0
KCL2 291655Z 03007KT 16/16 A2981 RMK A01 T01570155  RH  099%=      5-min Rain = 0
KCL2 291656Z 03007KT 16/16 A2981 RMK A01 T01580156  RH  099%=      5-min Rain = 0
KCL2 291657Z 03007KT 16/16 A2981 RMK A01 T01580157  RH  099%=      5-min Rain = 0
KCL2 291658Z 04006KT 16/16 A2981 RMK A01 T01580157  RH  099%=      5-min Rain = 0
KCL2 291659Z 04006KT 16/16 A2981 RMK A01 T01590157  RH  099%=      5-min Rain = 0
KCL2 291700Z 06006KT 16/16 A2982 RMK A01 T01590157  RH  099%=      5-min Rain = 0
KCL2 291701Z 06006KT 16/16 A2982 RMK A01 T01590157  RH  098%=      5-min Rain = 0
KCL2 291702Z 06005KT 16/16 A2983 RMK A01 T01590157  RH  098%=      5-min Rain = 0
KCL2 291703Z 07005KT 16/16 A2983 RMK A01 T01600157  RH  098%=      5-min Rain = 0
KCL2 291704Z 07005KT 16/16 A2983 RMK A01 T01610158  RH  098%=      5-min Rain = 0
KCL2 291705Z 09005KT 16/16 A2982 RMK A01 T01600157  RH  098%=      5-min Rain = 0
KCL2 291706Z 07005KT 16/16 A2982 RMK A01 T01600157  RH  098%=      5-min Rain = 0
KCL2 291707Z 07005KT 16/16 A2982 RMK A01 T01610157  RH  097%=      5-min Rain = 0
KCL2 291708Z 08004KT 16/16 A2982 RMK A01 T01610156  RH  097%=      5-min Rain = 0
KCL2 291709Z 07005KT 16/16 A2982 RMK A01 T01620157  RH  097%=      5-min Rain = 0
KCL2 291710Z 07004KT 16/16 A2983 RMK A01 T01620157  RH  097%=      5-min Rain = 0
KCL2 291711Z 08005KT 16/16 A2983 RMK A01 T01620156  RH  096%=      5-min Rain = 0
KCL2 291712Z 08004KT 16/16 A2983 RMK A01 T01620157  RH  097%=      5-min Rain = 0
KCL2 291713Z 08003KT 16/16 A2983 RMK A01 T01620155  RH  096%=      5-min Rain = 0
KCL2 291714Z 07006KT 16/16 A2983 RMK A01 T01620155  RH  096%=      5-min Rain = 0
KCL2 291715Z 10003KT 16/16 A2984 RMK A01 T01610155  RH  096%=      5-min Rain = 0
KCL2 291716Z 12004KT 16/16 A2985 RMK A01 T01620155  RH  096%=      5-min Rain = 0.01
KCL2 291717Z 15003KT 16/16 A2985 RMK A01 T01620156  RH  096%=      5-min Rain = 0.01
KCL2 291718Z 16003KT 16/16 A2986 RMK A01 T01620156  RH  096%=      5-min Rain = 0
KCL2 291719Z 20001KT 16/16 A2986 RMK A01 T01620156  RH  096%=      5-min Rain = 0.01
KCL2 291720Z 00001KT 16/16 A2985 RMK A01 T01620156  RH  097%=      5-min Rain = 0
KCL2 291721Z 03004KT 16/16 A2984 RMK A01 T01620157  RH  097%=      5-min Rain = 0.01
KCL2 291722Z 04006KT 16/16 A2983 RMK A01 T01620157  RH  097%=      5-min Rain = 0
KCL2 291723Z 05007KT 16/16 A2982 RMK A01 T01620157  RH  097%=      5-min Rain = 0
KCL2 291724Z 07006KT 16/16 A2983 RMK A01 T01620157  RH  097%=      5-min Rain = 0
KCL2 291725Z 07006KT 16/16 A2983 RMK A01 T01620158  RH  097%=      5-min Rain = 0.01
KCL2 291726Z 07006KT 16/16 A2983 RMK A01 T01630159  RH  097%=      5-min Rain = 0
KCL2 291727Z 09006KT 16/16 A2984 RMK A01 T01630158  RH  097%=      5-min Rain = 0
KCL2 291728Z 09006KT 16/16 A2984 RMK A01 T01630158  RH  097%=      5-min Rain = 0
KCL2 291729Z 07005KT 16/16 A2984 RMK A01 T01630158  RH  097%=      5-min Rain = 0
KCL2 291730Z 06004KT 16/16 A2983 RMK A01 T01640159  RH  097%=      5-min Rain = 0
KCL2 291731Z 07005KT 17/16 A2983 RMK A01 T01680164  RH  097%=      5-min Rain = 0
KCL2 291732Z 06006KT 17/16 A2983 RMK A01 T01690164  RH  097%=      5-min Rain = 0
KCL2 291733Z 06006KT 17/16 A2982 RMK A01 T01690163  RH  096%=      5-min Rain = 0
KCL2 291734Z 07006KT 17/16 A2983 RMK A01 T01690163  RH  096%=      5-min Rain = 0
KCL2 291735Z 07007KT 17/16 A2983 RMK A01 T01680162  RH  096%=      5-min Rain = 0
KCL2 291736Z 07006KT 17/16 A2983 RMK A01 T01690163  RH  096%=      5-min Rain = 0
KCL2 291737Z 06006KT 17/16 A2983 RMK A01 T01690162  RH  095%=      5-min Rain = 0
KCL2 291738Z 07005KT 17/17 A2984 RMK A01 T01710165  RH  096%=      5-min Rain = 0
KCL2 291739Z 07005KT 17/17 A2984 RMK A01 T01740169  RH  097%=      5-min Rain = 0
KCL2 291740Z 07005KT 17/17 A2984 RMK A01 T01740165  RH  095%=      5-min Rain = 0
KCL2 291741Z 08004KT 17/16 A2984 RMK A01 T01720161  RH  093%=      5-min Rain = 0
KCL2 291742Z 08005KT 17/16 A2984 RMK A01 T01700158  RH  092%=      5-min Rain = 0
KCL2 291743Z 08005KT 17/16 A2984 RMK A01 T01700158  RH  093%=      5-min Rain = 0
KCL2 291744Z 07005KT 17/16 A2984 RMK A01 T01730163  RH  094%=      5-min Rain = 0
KCL2 291745Z 07006KT 18/16 A2984 RMK A01 T01750164  RH  094%=      5-min Rain = 0
KCL2 291746Z 07006KT 18/16 A2984 RMK A01 T01750163  RH  092%=      5-min Rain = 0
KCL2 291747Z 08006KT 18/16 A2983 RMK A01 T01750161  RH  091%=      5-min Rain = 0
KCL2 291748Z 08006KT 18/16 A2983 RMK A01 T01760164  RH  093%=      5-min Rain = 0
KCL2 291749Z 09007KT 18/16 A2983 RMK A01 T01770163  RH  092%=      5-min Rain = 0
KCL2 291750Z 08008KT 18/16 A2983 RMK A01 T01770164  RH  092%=      5-min Rain = 0
KCL2 291751Z 08007KT 18/16 A2983 RMK A01 T01770163  RH  091%=      5-min Rain = 0
KCL2 291752Z 08008KT 18/16 A2983 RMK A01 T01760163  RH  092%=      5-min Rain = 0
KCL2 291753Z 08007KT 18/17 A2983 RMK A01 T01770165  RH  093%=      5-min Rain = 0
KCL2 291754Z 08006KT 18/17 A2983 RMK A01 T01790168  RH  093%=      5-min Rain = 0
KCL2 291755Z 07008KT 18/17 A2983 RMK A01 T01790166  RH  092%=      5-min Rain = 0
KCL2 291756Z 07008KT 18/16 A2983 RMK A01 T01790161  RH  089%=      5-min Rain = 0
KCL2 291757Z 07010KT 18/16 A2983 RMK A01 T01790163  RH  090%=      5-min Rain = 0
KCL2 291758Z 07009KT 18/16 A2983 RMK A01 T01790161  RH  089%=      5-min Rain = 0
KCL2 291759Z 07009KT 18/16 A2983 RMK A01 T01790161  RH  089%=      5-min Rain = 0
KCL2 291800Z 08008KT 18/16 A2983 RMK A01 T01800158  RH  087%=      5-min Rain = 0
KCL2 291801Z 10007KT 18/16 A2983 RMK A01 T01800163  RH  090%=      5-min Rain = 0
KCL2 291802Z 11008KT 18/17 A2983 RMK A01 T01810167  RH  091%=      5-min Rain = 0
KCL2 291803Z 10008KT 18/17 A2983 RMK A01 T01810167  RH  091%=      5-min Rain = 0
KCL2 291804Z 11007KT 18/16 A2983 RMK A01 T01790162  RH  089%=      5-min Rain = 0
KCL2 291805Z 11005KT 18/16 A2984 RMK A01 T01780161  RH  090%=      5-min Rain = 0
KCL2 291806Z 10006KT 18/16 A2983 RMK A01 T01780162  RH  090%=      5-min Rain = 0
KCL2 291807Z 10004KT 18/16 A2984 RMK A01 T01780163  RH  091%=      5-min Rain = 0
KCL2 291808Z 09005KT 18/16 A2984 RMK A01 T01790163  RH  091%=      5-min Rain = 0
KCL2 291809Z 10005KT 18/16 A2984 RMK A01 T01780161  RH  090%=      5-min Rain = 0
KCL2 291810Z 11004KT 18/16 A2984 RMK A01 T01790163  RH  091%=      5-min Rain = 0
KCL2 291811Z 12005KT 18/16 A2984 RMK A01 T01790163  RH  090%=      5-min Rain = 0
KCL2 291812Z 11005KT 18/16 A2984 RMK A01 T01800163  RH  090%=      5-min Rain = 0
KCL2 291813Z 11003KT 18/16 A2984 RMK A01 T01800163  RH  090%=      5-min Rain = 0
KCL2 291814Z 11004KT 18/16 A2984 RMK A01 T01800162  RH  089%=      5-min Rain = 0
KCL2 291815Z 10004KT 18/17 A2984 RMK A01 T01820166  RH  090%=      5-min Rain = 0
KCL2 291816Z 09005KT 18/17 A2984 RMK A01 T01840165  RH  089%=      5-min Rain = 0
KCL2 291817Z 08005KT 18/17 A2984 RMK A01 T01830165  RH  089%=      5-min Rain = 0.01
KCL2 291818Z 10005KT 18/16 A2984 RMK A01 T01830164  RH  089%=      5-min Rain = 0
KCL2 291819Z 09005KT 18/17 A2984 RMK A01 T01840168  RH  090%=      5-min Rain = 0
KCL2 291820Z 10007KT 19/17 A2983 RMK A01 T01850167  RH  089%=      5-min Rain = 0
KCL2 291821Z 10005KT 18/16 A2983 RMK A01 T01840164  RH  088%=      5-min Rain = 0
KCL2 291822Z 10005KT 18/16 A2983 RMK A01 T01830164  RH  088%=      5-min Rain = 0
KCL2 291823Z 08004KT 18/17 A2983 RMK A01 T01840166  RH  089%=      5-min Rain = 0
KCL2 291824Z 09003KT 18/16 A2983 RMK A01 T01840164  RH  088%=      5-min Rain = 0
KCL2 291825Z 06005KT 19/17 A2983 RMK A01 T01850167  RH  089%=      5-min Rain = 0
KCL2 291826Z 07005KT 19/17 A2983 RMK A01 T01850165  RH  088%=      5-min Rain = 0
KCL2 291827Z 06006KT 18/16 A2983 RMK A01 T01840163  RH  087%=      5-min Rain = 0
KCL2 291828Z 06004KT 18/16 A2983 RMK A01 T01830159  RH  086%=      5-min Rain = 0
KCL2 291829Z 08004KT 18/16 A2983 RMK A01 T01840162  RH  087%=      5-min Rain = 0
KCL2 291830Z 09005KT 18/16 A2983 RMK A01 T01840163  RH  088%=      5-min Rain = 0
KCL2 291831Z 09005KT 18/16 A2983 RMK A01 T01840163  RH  087%=      5-min Rain = 0
KCL2 291832Z 10006KT 18/16 A2983 RMK A01 T01840161  RH  087%=      5-min Rain = 0
KCL2 291833Z 10005KT 18/16 A2983 RMK A01 T01840164  RH  088%=      5-min Rain = 0
KCL2 291834Z 09006KT 18/17 A2983 RMK A01 T01840165  RH  089%=      5-min Rain = 0
KCL2 291835Z 09005KT 18/16 A2983 RMK A01 T01840164  RH  088%=      5-min Rain = 0
KCL2 291836Z 10006KT 18/16 A2983 RMK A01 T01840163  RH  088%=      5-min Rain = 0
KCL2 291837Z 09007KT 18/16 A2983 RMK A01 T01830163  RH  088%=      5-min Rain = 0
KCL2 291838Z 09005KT 18/17 A2983 RMK A01 T01820165  RH  089%=      5-min Rain = 0
KCL2 291839Z 08005KT 18/17 A2983 RMK A01 T01830167  RH  090%=      5-min Rain = 0
KCL2 291840Z 07006KT 18/16 A2983 RMK A01 T01830163  RH  088%=      5-min Rain = 0
KCL2 291841Z 07005KT 18/16 A2983 RMK A01 T01820163  RH  088%=      5-min Rain = 0
KCL2 291842Z 09004KT 18/16 A2983 RMK A01 T01830163  RH  089%=      5-min Rain = 0
KCL2 291843Z 09005KT 18/16 A2983 RMK A01 T01830164  RH  089%=      5-min Rain = 0
KCL2 291844Z 10005KT 18/17 A2983 RMK A01 T01830165  RH  089%=      5-min Rain = 0
KCL2 291845Z 09006KT 18/17 A2983 RMK A01 T01840166  RH  089%=      5-min Rain = 0
KCL2 291846Z 07008KT 18/16 A2982 RMK A01 T01840162  RH  087%=      5-min Rain = 0
KCL2 291847Z 08006KT 18/16 A2982 RMK A01 T01840162  RH  087%=      5-min Rain = 0
KCL2 291848Z 09006KT 18/17 A2982 RMK A01 T01840165  RH  089%=      5-min Rain = 0
KCL2 291849Z 09005KT 18/17 A2982 RMK A01 T01840165  RH  089%=      5-min Rain = 0
KCL2 291850Z 09006KT 18/17 A2982 RMK A01 T01840166  RH  089%=      5-min Rain = 0
KCL2 291851Z 08006KT 18/16 A2982 RMK A01 T01840163  RH  088%=      5-min Rain = 0
KCL2 291852Z 08006KT 18/16 A2982 RMK A01 T01830164  RH  089%=      5-min Rain = 0
KCL2 291853Z 09006KT 18/16 A2982 RMK A01 T01830164  RH  088%=      5-min Rain = 0
KCL2 291854Z 09006KT 18/16 A2982 RMK A01 T01830163  RH  088%=      5-min Rain = 0
KCL2 291855Z 09006KT 18/16 A2982 RMK A01 T01830163  RH  088%=      5-min Rain = 0
KCL2 291856Z 10006KT 18/17 A2982 RMK A01 T01830165  RH  089%=      5-min Rain = 0
KCL2 291857Z 10005KT 18/17 A2982 RMK A01 T01840167  RH  090%=      5-min Rain = 0
KCL2 291858Z 10004KT 18/17 A2982 RMK A01 T01840166  RH  089%=      5-min Rain = 0
KCL2 291859Z 09004KT 19/17 A2982 RMK A01 T01850166  RH  089%=      5-min Rain = 0
KCL2 291900Z 09005KT 19/17 A2982 RMK A01 T01850168  RH  089%=      5-min Rain = 0
KCL2 291901Z 09005KT 19/16 A2982 RMK A01 T01850163  RH  087%=      5-min Rain = 0
KCL2 291902Z 08006KT 18/16 A2982 RMK A01 T01840162  RH  087%=      5-min Rain = 0
KCL2 291903Z 08006KT 18/16 A2982 RMK A01 T01840163  RH  087%=      5-min Rain = 0
KCL2 291904Z 11004KT 18/16 A2982 RMK A01 T01840163  RH  087%=      5-min Rain = 0
KCL2 291905Z 11007KT 19/17 A2982 RMK A01 T01850167  RH  089%=      5-min Rain = 0
KCL2 291906Z 10007KT 19/17 A2982 RMK A01 T01860167  RH  089%=      5-min Rain = 0
KCL2 291907Z 09006KT 19/16 A2982 RMK A01 T01850163  RH  087%=      5-min Rain = 0
KCL2 291908Z 08006KT 19/16 A2982 RMK A01 T01850164  RH  088%=      5-min Rain = 0
KCL2 291909Z 07005KT 18/17 A2982 RMK A01 T01840165  RH  088%=      5-min Rain = 0
KCL2 291910Z 08005KT 18/17 A2981 RMK A01 T01840165  RH  089%=      5-min Rain = 0
KCL2 291911Z 08004KT 18/17 A2981 RMK A01 T01840165  RH  088%=      5-min Rain = 0
KCL2 291912Z 08005KT 19/17 A2981 RMK A01 T01850165  RH  088%=      5-min Rain = 0
KCL2 291913Z 06004KT 19/16 A2981 RMK A01 T01850164  RH  088%=      5-min Rain = 0
KCL2 291914Z 04004KT 19/17 A2981 RMK A01 T01870169  RH  090%=      5-min Rain = 0
KCL2 291915Z 06006KT 19/17 A2981 RMK A01 T01880166  RH  087%=      5-min Rain = 0
KCL2 291916Z 06007KT 19/16 A2981 RMK A01 T01870161  RH  085%=      5-min Rain = 0
KCL2 291917Z 06006KT 19/16 A2981 RMK A01 T01860162  RH  086%=      5-min Rain = 0
KCL2 291918Z 05004KT 19/16 A2981 RMK A01 T01850162  RH  086%=      5-min Rain = 0
KCL2 291919Z 06004KT 19/16 A2981 RMK A01 T01860164  RH  087%=      5-min Rain = 0
KCL2 291920Z 07005KT 19/16 A2981 RMK A01 T01860164  RH  087%=      5-min Rain = 0
KCL2 291921Z 07005KT 19/16 A2981 RMK A01 T01870163  RH  086%=      5-min Rain = 0
KCL2 291922Z 08003KT 19/17 A2981 RMK A01 T01880166  RH  087%=      5-min Rain = 0
KCL2 291923Z 09004KT 19/17 A2981 RMK A01 T01890168  RH  087%=      5-min Rain = 0
KCL2 291924Z 07006KT 19/17 A2981 RMK A01 T01900166  RH  086%=      5-min Rain = 0
KCL2 291925Z 06005KT 19/16 A2981 RMK A01 T01900164  RH  085%=      5-min Rain = 0
KCL2 291926Z 07005KT 19/16 A2981 RMK A01 T01900164  RH  085%=      5-min Rain = 0
KCL2 291927Z 07004KT 19/16 A2981 RMK A01 T01890161  RH  084%=      5-min Rain = 0
KCL2 291928Z 09005KT 19/17 A2981 RMK A01 T01890167  RH  087%=      5-min Rain = 0
KCL2 291929Z 08006KT 19/17 A2981 RMK A01 T01910171  RH  088%=      5-min Rain = 0
KCL2 291930Z 09006KT 19/16 A2981 RMK A01 T01910164  RH  085%=      5-min Rain = 0
KCL2 291931Z 08006KT 19/16 A2981 RMK A01 T01900163  RH  084%=      5-min Rain = 0
KCL2 291932Z 08004KT 19/17 A2981 RMK A01 T01910167  RH  086%=      5-min Rain = 0
KCL2 291933Z 09005KT 19/17 A2981 RMK A01 T01920165  RH  085%=      5-min Rain = 0
KCL2 291934Z 07005KT 19/17 A2981 RMK A01 T01920165  RH  084%=      5-min Rain = 0
KCL2 291935Z 08005KT 19/17 A2981 RMK A01 T01920165  RH  084%=      5-min Rain = 0
KCL2 291936Z 09005KT 19/17 A2981 RMK A01 T01920167  RH  085%=      5-min Rain = 0
KCL2 291937Z 09006KT 19/17 A2981 RMK A01 T01930166  RH  084%=      5-min Rain = 0
KCL2 291938Z 08006KT 19/17 A2981 RMK A01 T01930167  RH  085%=      5-min Rain = 0
KCL2 291939Z 07007KT 19/17 A2981 RMK A01 T01930165  RH  084%=      5-min Rain = 0
KCL2 291940Z 06006KT 19/16 A2981 RMK A01 T01930164  RH  083%=      5-min Rain = 0
KCL2 291941Z 09005KT 19/17 A2981 RMK A01 T01930165  RH  084%=      5-min Rain = 0
KCL2 291942Z 07007KT 19/17 A298 RMK A01 T01940169  RH  085%=      5-min Rain = 0
KCL2 291943Z 07005KT 20/17 A298 RMK A01 T01950165  RH  083%=      5-min Rain = 0
KCL2 291944Z 07007KT 20/17 A298 RMK A01 T01960169  RH  085%=      5-min Rain = 0
KCL2 291945Z 07006KT 20/17 A298 RMK A01 T01970167  RH  083%=      5-min Rain = 0
KCL2 291946Z 07007KT 20/17 A298 RMK A01 T01970168  RH  083%=      5-min Rain = 0
KCL2 291947Z 10006KT 20/17 A298 RMK A01 T01970166  RH  082%=      5-min Rain = 0
KCL2 291948Z 09007KT 20/17 A2981 RMK A01 T01980168  RH  083%=      5-min Rain = 0
KCL2 291949Z 08007KT 20/17 A2981 RMK A01 T01980168  RH  083%=      5-min Rain = 0
KCL2 291950Z 08006KT 20/17 A2981 RMK A01 T01980167  RH  082%=      5-min Rain = 0
KCL2 291951Z 07008KT 20/17 A2981 RMK A01 T01980166  RH  082%=      5-min Rain = 0
KCL2 291952Z 07008KT 20/16 A2981 RMK A01 T01980164  RH  081%=      5-min Rain = 0
KCL2 291953Z 07008KT 20/16 A2981 RMK A01 T01980163  RH  081%=      5-min Rain = 0
KCL2 291954Z 07007KT 20/16 A2981 RMK A01 T01980162  RH  080%=      5-min Rain = 0
KCL2 291955Z 06007KT 20/16 A2981 RMK A01 T01980164  RH  081%=      5-min Rain = 0
KCL2 291956Z 08008KT 20/16 A2981 RMK A01 T01980164  RH  080%=      5-min Rain = 0
KCL2 291957Z 08007KT 20/16 A2981 RMK A01 T01980163  RH  080%=      5-min Rain = 0
KCL2 291958Z 08007KT 20/16 A2981 RMK A01 T01980163  RH  080%=      5-min Rain = 0
KCL2 291959Z 08008KT 20/16 A2981 RMK A01 T01980163  RH  080%=      5-min Rain = 0
KCL2 292000Z 07007KT 20/16 A2981 RMK A01 T01980164  RH  081%=      5-min Rain = 0
KCL2 292001Z 07005KT 20/17 A2981 RMK A01 T01980165  RH  081%=      5-min Rain = 0
KCL2 292002Z 10007KT 20/17 A2981 RMK A01 T02000171  RH  084%=      5-min Rain = 0
KCL2 292003Z 08009KT 20/17 A2981 RMK A01 T02010165  RH  080%=      5-min Rain = 0
KCL2 292004Z 08008KT 20/16 A2981 RMK A01 T02010163  RH  078%=      5-min Rain = 0
KCL2 292005Z 08007KT 20/16 A2981 RMK A01 T02000162  RH  079%=      5-min Rain = 0
KCL2 292006Z 07008KT 20/16 A2981 RMK A01 T02000163  RH  079%=      5-min Rain = 0
KCL2 292007Z 06008KT 20/16 A2981 RMK A01 T02000162  RH  078%=      5-min Rain = 0
KCL2 292008Z 06009KT 20/16 A2981 RMK A01 T02010160  RH  077%=      5-min Rain = 0
KCL2 292009Z 06009KT 20/16 A298 RMK A01 T02000160  RH  078%=      5-min Rain = 0
KCL2 292010Z 06008KT 20/16 A298 RMK A01 T02000161  RH  078%=      5-min Rain = 0
KCL2 292011Z 07007KT 20/16 A298 RMK A01 T02010164  RH  079%=      5-min Rain = 0
KCL2 292012Z 07008KT 20/16 A298 RMK A01 T02020164  RH  079%=      5-min Rain = 0
KCL2 292013Z 08008KT 20/16 A298 RMK A01 T02020163  RH  078%=      5-min Rain = 0
KCL2 292014Z 06008KT 20/17 A298 RMK A01 T02030168  RH  080%=      5-min Rain = 0
KCL2 292015Z 06007KT 20/17 A298 RMK A01 T02040169  RH  080%=      5-min Rain = 0
KCL2 292016Z 06007KT 21/17 A298 RMK A01 T02050167  RH  079%=      5-min Rain = 0
KCL2 292017Z 07008KT 21/17 A298 RMK A01 T02050165  RH  078%=      5-min Rain = 0
KCL2 292018Z 07008KT 21/16 A298 RMK A01 T02050163  RH  077%=      5-min Rain = 0
KCL2 292019Z 08007KT 20/16 A298 RMK A01 T02040161  RH  076%=      5-min Rain = 0
KCL2 292020Z 07010KT 20/16 A298 RMK A01 T02040164  RH  078%=      5-min Rain = 0
KCL2 292021Z 06010KT 20/16 A298 RMK A01 T02040161  RH  076%=      5-min Rain = 0
KCL2 292022Z 06010KT 20/16 A298 RMK A01 T02030161  RH  076%=      5-min Rain = 0
KCL2 292023Z 07010KT 20/16 A298 RMK A01 T02030158  RH  075%=      5-min Rain = 0
KCL2 292024Z 06010KT 20/16 A2981 RMK A01 T02040158  RH  075%=      5-min Rain = 0
KCL2 292025Z 07009KT 20/16 A2981 RMK A01 T02030160  RH  076%=      5-min Rain = 0
KCL2 292026Z 06009KT 20/16 A2981 RMK A01 T02030160  RH  076%=      5-min Rain = 0
KCL2 292027Z 06009KT 20/16 A2981 RMK A01 T02030160  RH  076%=      5-min Rain = 0
KCL2 292028Z 06007KT 20/16 A298 RMK A01 T02030161  RH  077%=      5-min Rain = 0
KCL2 292029Z 09008KT 20/17 A298 RMK A01 T02040167  RH  079%=      5-min Rain = 0
KCL2 292030Z 08009KT 21/16 A298 RMK A01 T02050163  RH  077%=      5-min Rain = 0
KCL2 292031Z 07009KT 21/16 A298 RMK A01 T02050164  RH  077%=      5-min Rain = 0
KCL2 292032Z 07008KT 21/16 A298 RMK A01 T02050164  RH  077%=      5-min Rain = 0
KCL2 292033Z 06007KT 21/16 A298 RMK A01 T02050164  RH  077%=      5-min Rain = 0
KCL2 292034Z 07008KT 21/16 A298 RMK A01 T02050164  RH  077%=      5-min Rain = 0
KCL2 292035Z 05007KT 21/17 A298 RMK A01 T02050166  RH  078%=      5-min Rain = 0
KCL2 292036Z 05008KT 21/17 A298 RMK A01 T02060169  RH  079%=      5-min Rain = 0
KCL2 292037Z 05009KT 21/16 A298 RMK A01 T02060163  RH  076%=      5-min Rain = 0
KCL2 292038Z 05008KT 21/16 A298 RMK A01 T02070164  RH  076%=      5-min Rain = 0
KCL2 292039Z 05009KT 21/16 A298 RMK A01 T02070164  RH  076%=      5-min Rain = 0
KCL2 292040Z 05008KT 21/16 A298 RMK A01 T02060162  RH  076%=      5-min Rain = 0
KCL2 292041Z 06008KT 21/16 A298 RMK A01 T02060164  RH  077%=      5-min Rain = 0
KCL2 292042Z 06007KT 21/17 A298 RMK A01 T02070167  RH  078%=      5-min Rain = 0
KCL2 292043Z 05009KT 21/17 A2981 RMK A01 T02080169  RH  078%=      5-min Rain = 0
KCL2 292044Z 04008KT 21/16 A2981 RMK A01 T02080164  RH  076%=      5-min Rain = 0
KCL2 292045Z 05007KT 21/16 A2981 RMK A01 T02080163  RH  075%=      5-min Rain = 0
KCL2 292046Z 05008KT 21/17 A2981 RMK A01 T02080165  RH  077%=      5-min Rain = 0
KCL2 292047Z 07008KT 21/17 A2981 RMK A01 T02080168  RH  078%=      5-min Rain = 0
KCL2 292048Z 07008KT 21/17 A2981 RMK A01 T02090166  RH  077%=      5-min Rain = 0
KCL2 292049Z 05007KT 21/17 A2981 RMK A01 T02090170  RH  078%=      5-min Rain = 0
KCL2 292050Z 08007KT 21/17 A2981 RMK A01 T02110168  RH  077%=      5-min Rain = 0
KCL2 292051Z 07007KT 21/17 A2981 RMK A01 T02120170  RH  077%=      5-min Rain = 0
KCL2 292052Z 08007KT 21/17 A2981 RMK A01 T02130173  RH  078%=      5-min Rain = 0
KCL2 292053Z 09007KT 21/17 A2981 RMK A01 T02140169  RH  076%=      5-min Rain = 0
KCL2 292054Z 08008KT 21/17 A2981 RMK A01 T02140168  RH  075%=      5-min Rain = 0
KCL2 292055Z 06009KT 21/17 A2981 RMK A01 T02140168  RH  075%=      5-min Rain = 0
KCL2 292056Z 06008KT 21/17 A2981 RMK A01 T02140170  RH  076%=      5-min Rain = 0
KCL2 292057Z 06009KT 21/17 A2981 RMK A01 T02130168  RH  075%=      5-min Rain = 0
KCL2 292058Z 06008KT 21/17 A2981 RMK A01 T02140169  RH  076%=      5-min Rain = 0
KCL2 292059Z 07008KT 21/17 A2981 RMK A01 T02140167  RH  074%=      5-min Rain = 0
KCL2 292100Z 07009KT 21/17 A2981 RMK A01 T02140166  RH  074%=      5-min Rain = 0
KCL2 292101Z 06009KT 21/16 A2981 RMK A01 T02140164  RH  073%=      5-min Rain = 0
KCL2 292102Z 06007KT 21/17 A2981 RMK A01 T02140167  RH  075%=      5-min Rain = 0
KCL2 292103Z 07007KT 22/17 A2981 RMK A01 T02150169  RH  075%=      5-min Rain = 0
KCL2 292104Z 07007KT 22/17 A2981 RMK A01 T02160166  RH  073%=      5-min Rain = 0
KCL2 292105Z 07008KT 21/17 A2981 RMK A01 T02140167  RH  074%=      5-min Rain = 0
KCL2 292106Z 08007KT 21/16 A2981 RMK A01 T02130163  RH  073%=      5-min Rain = 0
KCL2 292107Z 08006KT 21/16 A2981 RMK A01 T02110163  RH  074%=      5-min Rain = 0
KCL2 292108Z 09006KT 21/16 A2981 RMK A01 T02110164  RH  075%=      5-min Rain = 0
KCL2 292109Z 09003KT 21/17 A2981 RMK A01 T02120168  RH  076%=      5-min Rain = 0
KCL2 292110Z 08004KT 21/17 A2981 RMK A01 T02130166  RH  074%=      5-min Rain = 0
KCL2 292111Z 08005KT 21/17 A2981 RMK A01 T02130166  RH  075%=      5-min Rain = 0
KCL2 292112Z 08005KT 21/17 A2981 RMK A01 T02140169  RH  075%=      5-min Rain = 0
KCL2 292113Z 05006KT 21/17 A2981 RMK A01 T02140165  RH  073%=      5-min Rain = 0
KCL2 292114Z 03006KT 21/17 A2981 RMK A01 T02140168  RH  075%=      5-min Rain = 0
KCL2 292115Z 02006KT 22/17 A2981 RMK A01 T02160174  RH  077%=      5-min Rain = 0
KCL2 292116Z 03005KT 22/17 A2982 RMK A01 T02170169  RH  074%=      5-min Rain = 0
KCL2 292117Z 04006KT 22/17 A2982 RMK A01 T02170166  RH  073%=      5-min Rain = 0
KCL2 292118Z 03006KT 22/17 A2982 RMK A01 T02170167  RH  073%=      5-min Rain = 0
KCL2 292119Z 04005KT 22/17 A2982 RMK A01 T02150167  RH  074%=      5-min Rain = 0
KCL2 292120Z 03004KT 22/17 A2982 RMK A01 T02150169  RH  075%=      5-min Rain = 0
KCL2 292121Z 04004KT 22/17 A2982 RMK A01 T02160171  RH  076%=      5-min Rain = 0
KCL2 292122Z 06004KT 22/17 A2982 RMK A01 T02160165  RH  073%=      5-min Rain = 0
KCL2 292123Z 06005KT 22/17 A2982 RMK A01 T02150168  RH  074%=      5-min Rain = 0
KCL2 292124Z 06006KT 22/17 A2981 RMK A01 T02150170  RH  075%=      5-min Rain = 0
KCL2 292125Z 05006KT 22/17 A2982 RMK A01 T02160169  RH  075%=      5-min Rain = 0
KCL2 292126Z 06005KT 22/17 A2982 RMK A01 T02160171  RH  075%=      5-min Rain = 0
KCL2 292127Z 06005KT 22/17 A2982 RMK A01 T02150168  RH  074%=      5-min Rain = 0
KCL2 292128Z 05006KT 22/17 A2982 RMK A01 T02150167  RH  074%=      5-min Rain = 0
KCL2 292129Z 05006KT 22/17 A2982 RMK A01 T02150167  RH  074%=      5-min Rain = 0
KCL2 292130Z 05006KT 22/17 A2982 RMK A01 T02150168  RH  075%=      5-min Rain = 0
KCL2 292131Z 03007KT 22/17 A2982 RMK A01 T02160169  RH  074%=      5-min Rain = 0
KCL2 292132Z 03005KT 22/17 A2982 RMK A01 T02170167  RH  073%=      5-min Rain = 0
KCL2 292133Z 03006KT 22/17 A2982 RMK A01 T02180168  RH  074%=      5-min Rain = 0
KCL2 292134Z 04004KT 22/16 A2982 RMK A01 T02180161  RH  070%=      5-min Rain = 0
KCL2 292135Z 03004KT 22/17 A2982 RMK A01 T02170165  RH  072%=      5-min Rain = 0
KCL2 292136Z 05005KT 22/17 A2982 RMK A01 T02170171  RH  075%=      5-min Rain = 0
KCL2 292137Z 05005KT 22/16 A2982 RMK A01 T02180164  RH  071%=      5-min Rain = 0
KCL2 292138Z 05005KT 22/17 A2982 RMK A01 T02190170  RH  074%=      5-min Rain = 0
KCL2 292139Z 03004KT 22/17 A2982 RMK A01 T02190168  RH  072%=      5-min Rain = 0
KCL2 292140Z 03006KT 22/17 A2982 RMK A01 T02200171  RH  074%=      5-min Rain = 0
KCL2 292141Z 05005KT 22/17 A2982 RMK A01 T02210171  RH  073%=      5-min Rain = 0
KCL2 292142Z 05005KT 22/17 A2982 RMK A01 T02220169  RH  072%=      5-min Rain = 0
KCL2 292143Z 04005KT 22/17 A2982 RMK A01 T02220170  RH  073%=      5-min Rain = 0
KCL2 292144Z 01005KT 22/17 A2982 RMK A01 T02210168  RH  072%=      5-min Rain = 0
KCL2 292145Z 02006KT 22/17 A2982 RMK A01 T02210169  RH  072%=      5-min Rain = 0
KCL2 292146Z 02003KT 22/17 A2982 RMK A01 T02210170  RH  073%=      5-min Rain = 0
KCL2 292147Z 02005KT 22/18 A2982 RMK A01 T02220175  RH  075%=      5-min Rain = 0
KCL2 292148Z 02004KT 22/17 A2982 RMK A01 T02220173  RH  073%=      5-min Rain = 0
KCL2 292149Z 06003KT 22/18 A2982 RMK A01 T02240178  RH  075%=      5-min Rain = 0
KCL2 292150Z 07004KT 23/18 A2982 RMK A01 T02250175  RH  073%=      5-min Rain = 0
KCL2 292151Z 06004KT 23/17 A2982 RMK A01 T02250173  RH  073%=      5-min Rain = 0
KCL2 292152Z 02004KT 23/18 A2982 RMK A01 T02250175  RH  074%=      5-min Rain = 0
KCL2 292153Z 01001KT 23/18 A2982 RMK A01 T02250179  RH  075%=      5-min Rain = 0
KCL2 292154Z 03001KT 23/17 A2982 RMK A01 T02270173  RH  072%=      5-min Rain = 0
KCL2 292155Z 07000KT 23/18 A2982 RMK A01 T02280177  RH  073%=      5-min Rain = 0
KCL2 292156Z 33001KT 23/18 A2982 RMK A01 T02320184  RH  075%=      5-min Rain = 0
KCL2 292157Z 32003KT 23/18 A2982 RMK A01 T02340179  RH  071%=      5-min Rain = 0
KCL2 292158Z 36004KT 24/18 A2982 RMK A01 T02350178  RH  071%=      5-min Rain = 0
KCL2 292159Z 36002KT 24/18 A2982 RMK A01 T02350177  RH  070%=      5-min Rain = 0
KCL2 292200Z 01004KT 23/18 A2982 RMK A01 T02340179  RH  071%=      5-min Rain = 0
KCL2 292201Z 01003KT 23/18 A2982 RMK A01 T02330175  RH  069%=      5-min Rain = 0
KCL2 292202Z 02002KT 23/18 A2982 RMK A01 T02320179  RH  072%=      5-min Rain = 0
KCL2 292203Z 02007KT 23/18 A2982 RMK A01 T02320179  RH  072%=      5-min Rain = 0
KCL2 292204Z 02008KT 23/18 A2982 RMK A01 T02330180  RH  072%=      5-min Rain = 0
KCL2 292205Z 01008KT 23/18 A2982 RMK A01 T02340178  RH  071%=      5-min Rain = 0
KCL2 292206Z 01007KT 23/18 A2982 RMK A01 T02340180  RH  072%=      5-min Rain = 0
KCL2 292207Z 01006KT 23/18 A2982 RMK A01 T02320176  RH  071%=      5-min Rain = 0
KCL2 292208Z 03008KT 23/18 A2982 RMK A01 T02320181  RH  073%=      5-min Rain = 0
KCL2 292209Z 02009KT 23/18 A2982 RMK A01 T02320175  RH  070%=      5-min Rain = 0
KCL2 292210Z 02009KT 23/17 A2982 RMK A01 T02320174  RH  070%=      5-min Rain = 0
KCL2 292211Z 02007KT 23/18 A2982 RMK A01 T02320175  RH  070%=      5-min Rain = 0
KCL2 292212Z 02006KT 23/18 A2982 RMK A01 T02330176  RH  071%=      5-min Rain = 0
KCL2 292213Z 01009KT 23/18 A2982 RMK A01 T02340177  RH  070%=      5-min Rain = 0
KCL2 292214Z 02008KT 24/17 A2982 RMK A01 T02350172  RH  068%=      5-min Rain = 0
KCL2 292215Z 01010KT 24/17 A2982 RMK A01 T02350171  RH  067%=      5-min Rain = 0
KCL2 292216Z 02008KT 24/17 A2982 RMK A01 T02350171  RH  067%=      5-min Rain = 0
KCL2 292217Z 01009KT 23/17 A2982 RMK A01 T02340169  RH  067%=      5-min Rain = 0
KCL2 292218Z 01007KT 23/17 A2982 RMK A01 T02330169  RH  067%=      5-min Rain = 0
KCL2 292219Z 01007KT 23/17 A2982 RMK A01 T02330170  RH  068%=      5-min Rain = 0
KCL2 292220Z 01006KT 23/17 A2982 RMK A01 T02330173  RH  069%=      5-min Rain = 0
KCL2 292221Z 00007KT 24/17 A2982 RMK A01 T02350172  RH  068%=      5-min Rain = 0
KCL2 292222Z 34009KT 24/17 A2982 RMK A01 T02350172  RH  068%=      5-min Rain = 0
KCL2 292223Z 34008KT 24/18 A2983 RMK A01 T02360176  RH  069%=      5-min Rain = 0
KCL2 292224Z 01009KT 24/18 A2983 RMK A01 T02370176  RH  069%=      5-min Rain = 0
KCL2 292225Z 01009KT 24/17 A2983 RMK A01 T02370174  RH  067%=      5-min Rain = 0
KCL2 292226Z 00009KT 24/17 A2983 RMK A01 T02360172  RH  067%=      5-min Rain = 0
KCL2 292227Z 36008KT 24/17 A2983 RMK A01 T02350171  RH  067%=      5-min Rain = 0
KCL2 292228Z 35009KT 24/17 A2983 RMK A01 T02350171  RH  068%=      5-min Rain = 0
KCL2 292229Z 33009KT 24/17 A2982 RMK A01 T02350171  RH  067%=      5-min Rain = 0
KCL2 292230Z 34008KT 24/17 A2982 RMK A01 T02350171  RH  067%=      5-min Rain = 0
KCL2 292231Z 35010KT 24/17 A2982 RMK A01 T02350172  RH  068%=      5-min Rain = 0
KCL2 292232Z 00009KT 24/17 A2982 RMK A01 T02360170  RH  066%=      5-min Rain = 0
KCL2 292233Z 36009KT 24/17 A2982 RMK A01 T02350174  RH  068%=      5-min Rain = 0
KCL2 292234Z 01009KT 24/17 A2982 RMK A01 T02360174  RH  069%=      5-min Rain = 0
KCL2 292235Z 00008KT 24/17 A2982 RMK A01 T02360173  RH  068%=      5-min Rain = 0
KCL2 292236Z 36008KT 24/18 A2982 RMK A01 T02360175  RH  068%=      5-min Rain = 0
KCL2 292237Z 35010KT 24/17 A2982 RMK A01 T02370171  RH  066%=      5-min Rain = 0
KCL2 292238Z 35010KT 24/17 A2982 RMK A01 T02350169  RH  066%=      5-min Rain = 0
KCL2 292239Z 00012KT 24/17 A2982 RMK A01 T02350171  RH  067%=      5-min Rain = 0
KCL2 292240Z 35010KT 24/17 A2982 RMK A01 T02350171  RH  067%=      5-min Rain = 0
KCL2 292241Z 34010KT 24/17 A2982 RMK A01 T02350172  RH  068%=      5-min Rain = 0
KCL2 292242Z 35011KT 24/17 A2982 RMK A01 T02350170  RH  067%=      5-min Rain = 0
KCL2 292243Z 36010KT 23/17 A2982 RMK A01 T02340170  RH  067%=      5-min Rain = 0
KCL2 292244Z 00012KT 23/17 A2982 RMK A01 T02330169  RH  067%=      5-min Rain = 0
KCL2 292245Z 36009KT 23/17 A2982 RMK A01 T02320170  RH  068%=      5-min Rain = 0
KCL2 292246Z 00009KT 23/17 A2982 RMK A01 T02320167  RH  067%=      5-min Rain = 0
KCL2 292247Z 36009KT 23/17 A2982 RMK A01 T02320168  RH  067%=      5-min Rain = 0
KCL2 292248Z 35008KT 23/17 A2982 RMK A01 T02320171  RH  069%=      5-min Rain = 0
KCL2 292249Z 35008KT 23/17 A2982 RMK A01 T02330174  RH  069%=      5-min Rain = 0
KCL2 292250Z 35009KT 24/18 A2982 RMK A01 T02350175  RH  069%=      5-min Rain = 0
KCL2 292251Z 01008KT 24/17 A2982 RMK A01 T02360174  RH  068%=      5-min Rain = 0
KCL2 292252Z 00009KT 24/17 A2982 RMK A01 T02360172  RH  067%=      5-min Rain = 0
KCL2 292253Z 35010KT 24/17 A2982 RMK A01 T02360170  RH  066%=      5-min Rain = 0
KCL2 292254Z 01008KT 23/17 A2982 RMK A01 T02340169  RH  067%=      5-min Rain = 0
KCL2 292255Z 01006KT 23/17 A2982 RMK A01 T02340171  RH  068%=      5-min Rain = 0
KCL2 292256Z 00006KT 24/18 A2982 RMK A01 T02350176  RH  069%=      5-min Rain = 0
KCL2 292257Z 01007KT 24/17 A2982 RMK A01 T02360173  RH  068%=      5-min Rain = 0
KCL2 292258Z 00008KT 24/17 A2982 RMK A01 T02370173  RH  067%=      5-min Rain = 0
KCL2 292259Z 35008KT 24/17 A2982 RMK A01 T02370172  RH  067%=      5-min Rain = 0
KCL2 292300Z 01007KT 24/17 A2982 RMK A01 T02370171  RH  067%=      5-min Rain = 0
KCL2 292301Z 01006KT 24/18 A2982 RMK A01 T02360175  RH  068%=      5-min Rain = 0
KCL2 292302Z 00008KT 24/17 A2982 RMK A01 T02370174  RH  068%=      5-min Rain = 0
KCL2 292303Z 36009KT 24/17 A2982 RMK A01 T02380173  RH  067%=      5-min Rain = 0
KCL2 292304Z 00010KT 24/17 A2982 RMK A01 T02380172  RH  067%=      5-min Rain = 0
KCL2 292305Z 00010KT 24/17 A2982 RMK A01 T02360170  RH  067%=      5-min Rain = 0
KCL2 292306Z 36010KT 23/17 A2982 RMK A01 T02330168  RH  067%=      5-min Rain = 0
KCL2 292307Z 36008KT 23/17 A2983 RMK A01 T02300168  RH  068%=      5-min Rain = 0
KCL2 292308Z 34009KT 23/17 A2983 RMK A01 T02290168  RH  068%=      5-min Rain = 0
KCL2 292309Z 35008KT 23/17 A2983 RMK A01 T02270166  RH  068%=      5-min Rain = 0
KCL2 292310Z 35007KT 23/17 A2983 RMK A01 T02270168  RH  069%=      5-min Rain = 0
KCL2 292311Z 35006KT 23/17 A2982 RMK A01 T02260170  RH  071%=      5-min Rain = 0
KCL2 292312Z 35007KT 23/17 A2982 RMK A01 T02260171  RH  071%=      5-min Rain = 0
KCL2 292313Z 35006KT 23/17 A2982 RMK A01 T02260171  RH  071%=      5-min Rain = 0
KCL2 292314Z 01007KT 23/17 A2982 RMK A01 T02260174  RH  072%=      5-min Rain = 0
KCL2 292315Z 02007KT 23/17 A2982 RMK A01 T02260171  RH  071%=      5-min Rain = 0
KCL2 292316Z 02007KT 23/17 A2982 RMK A01 T02260171  RH  071%=      5-min Rain = 0
KCL2 292317Z 01008KT 23/17 A2982 RMK A01 T02270174  RH  072%=      5-min Rain = 0
KCL2 292318Z 02007KT 23/17 A2982 RMK A01 T02270171  RH  071%=      5-min Rain = 0
KCL2 292319Z 02008KT 23/17 A2982 RMK A01 T02270173  RH  072%=      5-min Rain = 0
KCL2 292320Z 01006KT 23/17 A2982 RMK A01 T02270171  RH  071%=      5-min Rain = 0
KCL2 292321Z 00008KT 23/17 A2982 RMK A01 T02270173  RH  072%=      5-min Rain = 0
KCL2 292322Z 01007KT 23/17 A2982 RMK A01 T02270171  RH  071%=      5-min Rain = 0
KCL2 292323Z 01008KT 23/17 A2982 RMK A01 T02270169  RH  070%=      5-min Rain = 0
KCL2 292324Z 01008KT 23/17 A2982 RMK A01 T02270170  RH  070%=      5-min Rain = 0
KCL2 292325Z 02008KT 23/17 A2982 RMK A01 T02280172  RH  071%=      5-min Rain = 0
KCL2 292326Z 00007KT 23/17 A2982 RMK A01 T02280171  RH  070%=      5-min Rain = 0
KCL2 292327Z 01006KT 23/17 A2982 RMK A01 T02280173  RH  071%=      5-min Rain = 0
KCL2 292328Z 02005KT 23/18 A2982 RMK A01 T02290176  RH  072%=      5-min Rain = 0
KCL2 292329Z 02006KT 23/18 A2982 RMK A01 T02290178  RH  073%=      5-min Rain = 0
KCL2 292330Z 02009KT 23/18 A2982 RMK A01 T02300175  RH  071%=      5-min Rain = 0
KCL2 292331Z 02007KT 23/17 A2982 RMK A01 T02290172  RH  070%=      5-min Rain = 0
KCL2 292332Z 01006KT 23/18 A2982 RMK A01 T02290175  RH  072%=      5-min Rain = 0
KCL2 292333Z 02009KT 23/17 A2982 RMK A01 T02280173  RH  071%=      5-min Rain = 0
KCL2 292334Z 01006KT 23/17 A2982 RMK A01 T02280173  RH  071%=      5-min Rain = 0
KCL2 292335Z 01008KT 23/18 A2983 RMK A01 T02280175  RH  072%=      5-min Rain = 0
KCL2 292336Z 01009KT 23/17 A2983 RMK A01 T02280172  RH  071%=      5-min Rain = 0
KCL2 292337Z 00008KT 23/17 A2983 RMK A01 T02280171  RH  070%=      5-min Rain = 0
KCL2 292338Z 00009KT 23/17 A2983 RMK A01 T02270172  RH  071%=      5-min Rain = 0
KCL2 292339Z 01009KT 23/17 A2983 RMK A01 T02270170  RH  070%=      5-min Rain = 0
KCL2 292340Z 36008KT 23/17 A2983 RMK A01 T02270171  RH  071%=      5-min Rain = 0
KCL2 292341Z 36007KT 23/17 A2983 RMK A01 T02270172  RH  071%=      5-min Rain = 0
KCL2 292342Z 36006KT 23/17 A2983 RMK A01 T02270174  RH  072%=      5-min Rain = 0
KCL2 292343Z 00005KT 23/18 A2983 RMK A01 T02270176  RH  073%=      5-min Rain = 0
KCL2 292344Z 00007KT 23/18 A2983 RMK A01 T02270176  RH  073%=      5-min Rain = 0
KCL2 292345Z 00006KT 23/17 A2983 RMK A01 T02270174  RH  072%=      5-min Rain = 0
KCL2 292346Z 01006KT 23/18 A2983 RMK A01 T02270176  RH  073%=      5-min Rain = 0
KCL2 292347Z 01008KT 23/17 A2982 RMK A01 T02270172  RH  071%=      5-min Rain = 0
KCL2 292348Z 00006KT 23/17 A2982 RMK A01 T02270173  RH  071%=      5-min Rain = 0
KCL2 292349Z 01008KT 23/17 A2982 RMK A01 T02260173  RH  072%=      5-min Rain = 0
KCL2 292350Z 01006KT 23/17 A2982 RMK A01 T02260173  RH  072%=      5-min Rain = 0
KCL2 292351Z 01006KT 23/17 A2982 RMK A01 T02260174  RH  073%=      5-min Rain = 0
KCL2 292352Z 01008KT 23/17 A2983 RMK A01 T02260172  RH  072%=      5-min Rain = 0
KCL2 292353Z 01007KT 23/17 A2983 RMK A01 T02250170  RH  071%=      5-min Rain = 0
KCL2 292354Z 01006KT 23/17 A2982 RMK A01 T02250172  RH  072%=      5-min Rain = 0
KCL2 292355Z 01006KT 23/17 A2983 RMK A01 T02260173  RH  072%=      5-min Rain = 0
KCL2 292356Z 02007KT 23/17 A2983 RMK A01 T02260173  RH  072%=      5-min Rain = 0
KCL2 292357Z 02005KT 23/18 A2983 RMK A01 T02260175  RH  073%=      5-min Rain = 0
KCL2 292358Z 01005KT 23/18 A2983 RMK A01 T02270177  RH  073%=      5-min Rain = 0
KCL2 292359Z 02006KT 23/18 A2983 RMK A01 T02280175  RH  072%=      5-min Rain = 0
KCL2 300000Z 01005KT 23/18 A2983 RMK A01 T02280175  RH  072%=      5-min Rain = 0
KCL2 300001Z 01005KT 23/18 A2983 RMK A01 T02280176  RH  072%=      5-min Rain = 0
KCL2 300002Z 02008KT 23/17 A2983 RMK A01 T02280174  RH  072%=      5-min Rain = 0
KCL2 300003Z 01007KT 23/18 A2983 RMK A01 T02280177  RH  073%=      5-min Rain = 0
KCL2 300004Z 00006KT 23/18 A2983 RMK A01 T02280175  RH  072%=      5-min Rain = 0
KCL2 300005Z 01006KT 23/18 A2983 RMK A01 T02270176  RH  073%=      5-min Rain = 0
KCL2 300006Z 01005KT 23/18 A2983 RMK A01 T02270175  RH  073%=      5-min Rain = 0
KCL2 300007Z 02006KT 23/18 A2983 RMK A01 T02270176  RH  073%=      5-min Rain = 0
KCL2 300008Z 01006KT 23/17 A2983 RMK A01 T02270174  RH  072%=      5-min Rain = 0
KCL2 300009Z 01008KT 23/17 A2983 RMK A01 T02270173  RH  072%=      5-min Rain = 0
KCL2 300010Z 02008KT 23/17 A2983 RMK A01 T02280174  RH  072%=      5-min Rain = 0
KCL2 300011Z 02007KT 23/18 A2983 RMK A01 T02290175  RH  072%=      5-min Rain = 0
KCL2 300012Z 02006KT 23/18 A2983 RMK A01 T02300177  RH  072%=      5-min Rain = 0
KCL2 300013Z 02008KT 23/18 A2983 RMK A01 T02310176  RH  071%=      5-min Rain = 0
KCL2 300014Z 02009KT 23/17 A2983 RMK A01 T02310173  RH  070%=      5-min Rain = 0
KCL2 300015Z 02009KT 23/17 A2983 RMK A01 T02310173  RH  070%=      5-min Rain = 0
KCL2 300016Z 01008KT 23/17 A2983 RMK A01 T02310174  RH  070%=      5-min Rain = 0
KCL2 300017Z 01006KT 23/18 A2983 RMK A01 T02300175  RH  071%=      5-min Rain = 0
KCL2 300018Z 01006KT 23/18 A2983 RMK A01 T02310175  RH  071%=      5-min Rain = 0
KCL2 300019Z 02006KT 23/18 A2983 RMK A01 T02300176  RH  072%=      5-min Rain = 0
KCL2 300020Z 03008KT 23/18 A2983 RMK A01 T02300177  RH  072%=      5-min Rain = 0
KCL2 300021Z 02008KT 23/18 A2983 RMK A01 T02310177  RH  072%=      5-min Rain = 0
KCL2 300022Z 01007KT 23/17 A2983 RMK A01 T02300174  RH  071%=      5-min Rain = 0
KCL2 300023Z 02007KT 23/17 A2983 RMK A01 T02290174  RH  071%=      5-min Rain = 0
KCL2 300024Z 02007KT 23/17 A2983 RMK A01 T02290174  RH  071%=      5-min Rain = 0
KCL2 300025Z 03006KT 23/18 A2983 RMK A01 T02290176  RH  072%=      5-min Rain = 0
KCL2 300026Z 03006KT 23/18 A2983 RMK A01 T02290177  RH  072%=      5-min Rain = 0
KCL2 300027Z 01004KT 23/18 A2983 RMK A01 T02290179  RH  073%=      5-min Rain = 0
KCL2 300028Z 02007KT 23/18 A2983 RMK A01 T02290178  RH  073%=      5-min Rain = 0
KCL2 300029Z 02006KT 23/18 A2983 RMK A01 T02290175  RH  072%=      5-min Rain = 0
KCL2 300030Z 01006KT 23/18 A2983 RMK A01 T02290177  RH  072%=      5-min Rain = 0
KCL2 300031Z 02005KT 23/18 A2983 RMK A01 T02290175  RH  072%=      5-min Rain = 0
KCL2 300032Z 02005KT 23/18 A2983 RMK A01 T02290178  RH  073%=      5-min Rain = 0
KCL2 300033Z 01006KT 23/18 A2983 RMK A01 T02290178  RH  073%=      5-min Rain = 0
KCL2 300034Z 01008KT 23/18 A2983 RMK A01 T02290178  RH  073%=      5-min Rain = 0
KCL2 300035Z 01008KT 23/17 A2983 RMK A01 T02290173  RH  071%=      5-min Rain = 0
KCL2 300036Z 00008KT 23/18 A2983 RMK A01 T02290175  RH  072%=      5-min Rain = 0
KCL2 300037Z 36008KT 23/17 A2983 RMK A01 T02290173  RH  071%=      5-min Rain = 0
KCL2 300038Z 00008KT 23/17 A2983 RMK A01 T02290174  RH  071%=      5-min Rain = 0
KCL2 300039Z 01008KT 23/17 A2983 RMK A01 T02290174  RH  071%=      5-min Rain = 0
KCL2 300040Z 02006KT 23/18 A2983 RMK A01 T02290176  RH  072%=      5-min Rain = 0
KCL2 300041Z 01007KT 23/18 A2983 RMK A01 T02290176  RH  072%=      5-min Rain = 0
KCL2 300042Z 02008KT 23/17 A2983 RMK A01 T02290174  RH  071%=      5-min Rain = 0
KCL2 300043Z 01008KT 23/17 A2983 RMK A01 T02290174  RH  071%=      5-min Rain = 0
KCL2 300044Z 01008KT 23/17 A2983 RMK A01 T02290174  RH  071%=      5-min Rain = 0
KCL2 300045Z 01008KT 23/17 A2983 RMK A01 T02290174  RH  071%=      5-min Rain = 0
KCL2 300046Z 02007KT 23/17 A2983 RMK A01 T02280173  RH  071%=      5-min Rain = 0
KCL2 300047Z 02008KT 23/17 A2983 RMK A01 T02280174  RH  071%=      5-min Rain = 0
KCL2 300048Z 02006KT 23/17 A2983 RMK A01 T02280172  RH  071%=      5-min Rain = 0
KCL2 300049Z 02007KT 23/17 A2983 RMK A01 T02280173  RH  071%=      5-min Rain = 0
KCL2 300050Z 01005KT 23/17 A2983 RMK A01 T02280174  RH  072%=      5-min Rain = 0
KCL2 300051Z 02005KT 23/18 A2984 RMK A01 T02280176  RH  072%=      5-min Rain = 0
KCL2 300052Z 01004KT 23/18 A2984 RMK A01 T02280177  RH  073%=      5-min Rain = 0
KCL2 300053Z 02005KT 23/18 A2984 RMK A01 T02270177  RH  073%=      5-min Rain = 0
KCL2 300054Z 01006KT 23/18 A2984 RMK A01 T02270175  RH  072%=      5-min Rain = 0
KCL2 300055Z 02006KT 23/17 A2984 RMK A01 T02270174  RH  072%=      5-min Rain = 0
KCL2 300056Z 02006KT 23/17 A2984 RMK A01 T02270174  RH  072%=      5-min Rain = 0
KCL2 300057Z 04006KT 23/17 A2984 RMK A01 T02260173  RH  072%=      5-min Rain = 0
KCL2 300058Z 04006KT 23/17 A2984 RMK A01 T02250174  RH  073%=      5-min Rain = 0
KCL2 300059Z 05005KT 23/18 A2984 RMK A01 T02250177  RH  074%=      5-min Rain = 0
KCL2 300100Z 05005KT 22/18 A2984 RMK A01 T02240178  RH  075%=      5-min Rain = 0
KCL2 300101Z 05004KT 22/18 A2984 RMK A01 T02230178  RH  076%=      5-min Rain = 0
KCL2 300102Z 04005KT 22/18 A2984 RMK A01 T02220179  RH  077%=      5-min Rain = 0
KCL2 300103Z 05005KT 22/18 A2984 RMK A01 T02210180  RH  077%=      5-min Rain = 0
KCL2 300104Z 04005KT 22/18 A2984 RMK A01 T02210178  RH  077%=      5-min Rain = 0
KCL2 300105Z 04005KT 22/18 A2984 RMK A01 T02210179  RH  077%=      5-min Rain = 0
KCL2 300106Z 05004KT 22/18 A2984 RMK A01 T02210180  RH  078%=      5-min Rain = 0
KCL2 300107Z 03005KT 22/18 A2984 RMK A01 T02200180  RH  078%=      5-min Rain = 0
KCL2 300108Z 02003KT 22/18 A2984 RMK A01 T02200179  RH  077%=      5-min Rain = 0
KCL2 300109Z 04003KT 22/18 A2984 RMK A01 T02200180  RH  078%=      5-min Rain = 0
KCL2 300110Z 04004KT 22/18 A2984 RMK A01 T02190180  RH  079%=      5-min Rain = 0
KCL2 300111Z 04004KT 22/18 A2984 RMK A01 T02190180  RH  079%=      5-min Rain = 0
KCL2 300112Z 04003KT 22/18 A2984 RMK A01 T02190181  RH  079%=      5-min Rain = 0
KCL2 300113Z 03004KT 22/18 A2984 RMK A01 T02180182  RH  080%=      5-min Rain = 0
KCL2 300114Z 04004KT 22/18 A2984 RMK A01 T02170181  RH  080%=      5-min Rain = 0
KCL2 300115Z 06004KT 22/18 A2984 RMK A01 T02160180  RH  080%=      5-min Rain = 0
KCL2 300116Z 05004KT 22/18 A2984 RMK A01 T02160181  RH  080%=      5-min Rain = 0
KCL2 300117Z 06004KT 22/18 A2985 RMK A01 T02150181  RH  081%=      5-min Rain = 0
KCL2 300118Z 05005KT 22/18 A2985 RMK A01 T02150180  RH  081%=      5-min Rain = 0
KCL2 300119Z 06005KT 22/18 A2985 RMK A01 T02150179  RH  080%=      5-min Rain = 0
KCL2 300120Z 04005KT 22/18 A2985 RMK A01 T02150179  RH  080%=      5-min Rain = 0
KCL2 300121Z 04005KT 21/18 A2985 RMK A01 T02140179  RH  080%=      5-min Rain = 0
KCL2 300122Z 04005KT 21/18 A2985 RMK A01 T02140180  RH  081%=      5-min Rain = 0
KCL2 300123Z 05005KT 21/18 A2985 RMK A01 T02130179  RH  081%=      5-min Rain = 0
KCL2 300124Z 06006KT 21/18 A2985 RMK A01 T02120179  RH  081%=      5-min Rain = 0
KCL2 300125Z 06005KT 21/18 A2985 RMK A01 T02120178  RH  081%=      5-min Rain = 0
KCL2 300126Z 06007KT 21/18 A2985 RMK A01 T02120179  RH  081%=      5-min Rain = 0
KCL2 300127Z 06006KT 21/18 A2985 RMK A01 T02110177  RH  081%=      5-min Rain = 0
KCL2 300128Z 06007KT 21/18 A2985 RMK A01 T02110177  RH  081%=      5-min Rain = 0
KCL2 300129Z 06006KT 21/18 A2985 RMK A01 T02110176  RH  080%=      5-min Rain = 0
KCL2 300130Z 05005KT 21/18 A2985 RMK A01 T02110178  RH  081%=      5-min Rain = 0
KCL2 300131Z 05006KT 21/18 A2985 RMK A01 T02110179  RH  082%=      5-min Rain = 0
KCL2 300132Z 06006KT 21/18 A2985 RMK A01 T02090178  RH  082%=      5-min Rain = 0
KCL2 300133Z 06005KT 21/18 A2985 RMK A01 T02090179  RH  083%=      5-min Rain = 0
KCL2 300134Z 06006KT 21/18 A2985 RMK A01 T02080178  RH  083%=      5-min Rain = 0
KCL2 300135Z 06005KT 21/18 A2985 RMK A01 T02070178  RH  083%=      5-min Rain = 0
KCL2 300136Z 06005KT 21/18 A2985 RMK A01 T02070178  RH  083%=      5-min Rain = 0
KCL2 300137Z 06005KT 21/18 A2985 RMK A01 T02070178  RH  083%=      5-min Rain = 0
KCL2 300138Z 05005KT 21/18 A2985 RMK A01 T02070177  RH  083%=      5-min Rain = 0
KCL2 300139Z 05004KT 21/18 A2985 RMK A01 T02070178  RH  084%=      5-min Rain = 0
KCL2 300140Z 05005KT 21/18 A2985 RMK A01 T02060178  RH  084%=      5-min Rain = 0
KCL2 300141Z 05005KT 21/18 A2985 RMK A01 T02050178  RH  085%=      5-min Rain = 0
KCL2 300142Z 05005KT 20/18 A2985 RMK A01 T02040177  RH  085%=      5-min Rain = 0
KCL2 300143Z 05005KT 20/18 A2985 RMK A01 T02030177  RH  085%=      5-min Rain = 0
KCL2 300144Z 05005KT 20/18 A2985 RMK A01 T02020177  RH  086%=      5-min Rain = 0
KCL2 300145Z 04004KT 20/18 A2985 RMK A01 T02020177  RH  086%=      5-min Rain = 0
KCL2 300146Z 04005KT 20/18 A2985 RMK A01 T02020177  RH  086%=      5-min Rain = 0
KCL2 300147Z 04004KT 20/18 A2985 RMK A01 T02010177  RH  086%=      5-min Rain = 0
KCL2 300148Z 04005KT 20/18 A2985 RMK A01 T02010177  RH  086%=      5-min Rain = 0
KCL2 300149Z 04005KT 20/18 A2985 RMK A01 T02010177  RH  086%=      5-min Rain = 0
KCL2 300150Z 05005KT 20/18 A2985 RMK A01 T02000177  RH  087%=      5-min Rain = 0
KCL2 300151Z 05005KT 20/18 A2985 RMK A01 T02000177  RH  087%=      5-min Rain = 0
KCL2 300152Z 04005KT 20/18 A2985 RMK A01 T01990177  RH  087%=      5-min Rain = 0
KCL2 300153Z 05005KT 20/18 A2985 RMK A01 T01990177  RH  087%=      5-min Rain = 0
KCL2 300154Z 05005KT 20/18 A2985 RMK A01 T01980177  RH  088%=      5-min Rain = 0
KCL2 300155Z 05004KT 20/18 A2986 RMK A01 T01980177  RH  088%=      5-min Rain = 0
KCL2 300156Z 05004KT 20/18 A2986 RMK A01 T01980177  RH  087%=      5-min Rain = 0
KCL2 300157Z 05004KT 20/18 A2986 RMK A01 T01980176  RH  087%=      5-min Rain = 0
KCL2 300158Z 05005KT 20/18 A2986 RMK A01 T01980176  RH  087%=      5-min Rain = 0
KCL2 300159Z 05004KT 20/18 A2986 RMK A01 T01980176  RH  087%=      5-min Rain = 0
KCL2 300200Z 04005KT 20/18 A2986 RMK A01 T01980176  RH  087%=      5-min Rain = 0
KCL2 300201Z 05005KT 20/18 A2986 RMK A01 T01970176  RH  088%=      5-min Rain = 0
KCL2 300202Z 04005KT 20/18 A2986 RMK A01 T01970176  RH  088%=      5-min Rain = 0
KCL2 300203Z 04005KT 20/18 A2986 RMK A01 T01970176  RH  088%=      5-min Rain = 0
KCL2 300204Z 04005KT 20/18 A2986 RMK A01 T01970176  RH  088%=      5-min Rain = 0
KCL2 300205Z 04004KT 20/18 A2986 RMK A01 T01970177  RH  088%=      5-min Rain = 0
KCL2 300206Z 04004KT 20/18 A2986 RMK A01 T01960176  RH  088%=      5-min Rain = 0
KCL2 300207Z 05005KT 20/18 A2986 RMK A01 T01960176  RH  088%=      5-min Rain = 0
KCL2 300208Z 05005KT 20/18 A2986 RMK A01 T01960177  RH  089%=      5-min Rain = 0
KCL2 300209Z 05004KT 20/18 A2986 RMK A01 T01950176  RH  089%=      5-min Rain = 0
KCL2 300210Z 05004KT 20/18 A2986 RMK A01 T01950177  RH  089%=      5-min Rain = 0
KCL2 300211Z 06004KT 20/18 A2986 RMK A01 T01950177  RH  089%=      5-min Rain = 0
KCL2 300212Z 06004KT 20/18 A2986 RMK A01 T01950177  RH  089%=      5-min Rain = 0
KCL2 300213Z 06004KT 20/18 A2986 RMK A01 T01950177  RH  089%=      5-min Rain = 0
KCL2 300214Z 06004KT 20/18 A2986 RMK A01 T01950176  RH  089%=      5-min Rain = 0
KCL2 300215Z 06004KT 20/18 A2986 RMK A01 T01950177  RH  089%=      5-min Rain = 0
KCL2 300216Z 06005KT 20/18 A2986 RMK A01 T01950177  RH  089%=      5-min Rain = 0
KCL2 300217Z 05005KT 20/18 A2986 RMK A01 T01950176  RH  089%=      5-min Rain = 0
KCL2 300218Z 05004KT 20/18 A2986 RMK A01 T01950176  RH  089%=      5-min Rain = 0
KCL2 300219Z 05004KT 20/18 A2986 RMK A01 T01950176  RH  089%=      5-min Rain = 0
KCL2 300220Z 04004KT 20/18 A2987 RMK A01 T01950176  RH  088%=      5-min Rain = 0
KCL2 300221Z 05004KT 20/18 A2987 RMK A01 T01950175  RH  089%=      5-min Rain = 0
KCL2 300222Z 04004KT 20/18 A2987 RMK A01 T01950176  RH  089%=      5-min Rain = 0
KCL2 300223Z 04005KT 20/18 A2987 RMK A01 T01950175  RH  089%=      5-min Rain = 0
KCL2 300224Z 04004KT 20/18 A2987 RMK A01 T01950176  RH  089%=      5-min Rain = 0
KCL2 300225Z 04005KT 19/18 A2987 RMK A01 T01940175  RH  089%=      5-min Rain = 0
KCL2 300226Z 04005KT 19/18 A2987 RMK A01 T01940176  RH  089%=      5-min Rain = 0
KCL2 300227Z 04005KT 19/18 A2987 RMK A01 T01940176  RH  089%=      5-min Rain = 0
KCL2 300228Z 05005KT 19/18 A2987 RMK A01 T01940175  RH  089%=      5-min Rain = 0
KCL2 300229Z 04005KT 19/18 A2987 RMK A01 T01930176  RH  090%=      5-min Rain = 0
KCL2 300230Z 04005KT 19/18 A2987 RMK A01 T01930175  RH  090%=      5-min Rain = 0
KCL2 300231Z 04005KT 19/18 A2987 RMK A01 T01930176  RH  090%=      5-min Rain = 0
KCL2 300232Z 04005KT 19/18 A2987 RMK A01 T01930176  RH  090%=      5-min Rain = 0
KCL2 300233Z 04005KT 19/18 A2987 RMK A01 T01930176  RH  090%=      5-min Rain = 0
KCL2 300234Z 04005KT 19/18 A2987 RMK A01 T01930175  RH  090%=      5-min Rain = 0
KCL2 300235Z 03005KT 19/18 A2987 RMK A01 T01930176  RH  090%=      5-min Rain = 0
KCL2 300236Z 03004KT 19/18 A2987 RMK A01 T01930175  RH  090%=      5-min Rain = 0
KCL2 300237Z 04004KT 19/18 A2987 RMK A01 T01930175  RH  090%=      5-min Rain = 0
KCL2 300238Z 04004KT 19/18 A2987 RMK A01 T01920175  RH  090%=      5-min Rain = 0
KCL2 300239Z 05005KT 19/18 A2987 RMK A01 T01920175  RH  090%=      5-min Rain = 0
KCL2 300240Z 05005KT 19/18 A2987 RMK A01 T01920175  RH  090%=      5-min Rain = 0
KCL2 300241Z 05005KT 19/18 A2987 RMK A01 T01910175  RH  090%=      5-min Rain = 0
KCL2 300242Z 04005KT 19/17 A2987 RMK A01 T01910174  RH  090%=      5-min Rain = 0
KCL2 300243Z 04005KT 19/17 A2987 RMK A01 T01910174  RH  090%=      5-min Rain = 0
KCL2 300244Z 04005KT 19/17 A2987 RMK A01 T01910174  RH  090%=      5-min Rain = 0
KCL2 300245Z 03005KT 19/17 A2987 RMK A01 T01910174  RH  090%=      5-min Rain = 0
KCL2 300246Z 02004KT 19/17 A2987 RMK A01 T01910174  RH  090%=      5-min Rain = 0
KCL2 300247Z 03004KT 19/17 A2988 RMK A01 T01910174  RH  090%=      5-min Rain = 0
KCL2 300248Z 02005KT 19/18 A2988 RMK A01 T01910175  RH  090%=      5-min Rain = 0
KCL2 300249Z 02005KT 19/17 A2988 RMK A01 T01900174  RH  091%=      5-min Rain = 0
KCL2 300250Z 02005KT 19/18 A2988 RMK A01 T01900175  RH  091%=      5-min Rain = 0
KCL2 300251Z 03005KT 19/17 A2988 RMK A01 T01900174  RH  091%=      5-min Rain = 0
KCL2 300252Z 03004KT 19/18 A2988 RMK A01 T01900175  RH  091%=      5-min Rain = 0
KCL2 300253Z 03004KT 19/17 A2988 RMK A01 T01890174  RH  091%=      5-min Rain = 0
KCL2 300254Z 03005KT 19/17 A2988 RMK A01 T01890174  RH  091%=      5-min Rain = 0
KCL2 300255Z 03005KT 19/17 A2988 RMK A01 T01890174  RH  091%=      5-min Rain = 0
KCL2 300256Z 02005KT 19/17 A2988 RMK A01 T01890174  RH  091%=      5-min Rain = 0
KCL2 300257Z 02005KT 19/18 A2988 RMK A01 T01890175  RH  091%=      5-min Rain = 0
KCL2 300258Z 02005KT 19/18 A2988 RMK A01 T01890175  RH  091%=      5-min Rain = 0
KCL2 300259Z 02006KT 19/17 A2988 RMK A01 T01890174  RH  091%=      5-min Rain = 0
KCL2 300300Z 02006KT 19/17 A2988 RMK A01 T01890174  RH  091%=      5-min Rain = 0
KCL2 300301Z 02006KT 19/17 A2988 RMK A01 T01890174  RH  091%=      5-min Rain = 0
KCL2 300302Z 02006KT 19/17 A2988 RMK A01 T01890174  RH  091%=      5-min Rain = 0
KCL2 300303Z 02006KT 19/17 A2988 RMK A01 T01890174  RH  091%=      5-min Rain = 0
KCL2 300304Z 02007KT 19/17 A2988 RMK A01 T01890174  RH  091%=      5-min Rain = 0
KCL2 300305Z 02006KT 19/17 A2988 RMK A01 T01890173  RH  090%=      5-min Rain = 0
KCL2 300306Z 02006KT 19/17 A2989 RMK A01 T01890172  RH  090%=      5-min Rain = 0
KCL2 300307Z 02007KT 19/17 A2989 RMK A01 T01890172  RH  090%=      5-min Rain = 0
KCL2 300308Z 02006KT 19/17 A2989 RMK A01 T01890172  RH  090%=      5-min Rain = 0
KCL2 300309Z 03007KT 19/17 A2989 RMK A01 T01890172  RH  090%=      5-min Rain = 0
KCL2 300310Z 02006KT 19/17 A2989 RMK A01 T01890172  RH  090%=      5-min Rain = 0
KCL2 300311Z 02005KT 19/17 A2989 RMK A01 T01890171  RH  089%=      5-min Rain = 0
KCL2 300312Z 02006KT 19/17 A2989 RMK A01 T01890171  RH  089%=      5-min Rain = 0
KCL2 300313Z 03007KT 19/17 A2989 RMK A01 T01890172  RH  090%=      5-min Rain = 0
KCL2 300314Z 02007KT 19/17 A2989 RMK A01 T01890172  RH  090%=      5-min Rain = 0
KCL2 300315Z 03007KT 19/17 A2989 RMK A01 T01890171  RH  089%=      5-min Rain = 0
KCL2 300316Z 03007KT 19/17 A2989 RMK A01 T01890171  RH  089%=      5-min Rain = 0
KCL2 300317Z 03007KT 19/17 A2989 RMK A01 T01890170  RH  089%=      5-min Rain = 0
KCL2 300318Z 03008KT 19/17 A2989 RMK A01 T01890170  RH  089%=      5-min Rain = 0
KCL2 300319Z 03007KT 19/17 A2989 RMK A01 T01890171  RH  089%=      5-min Rain = 0
KCL2 300320Z 02007KT 19/17 A2989 RMK A01 T01890171  RH  089%=      5-min Rain = 0
KCL2 300321Z 02006KT 19/17 A2989 RMK A01 T01900171  RH  089%=      5-min Rain = 0
KCL2 300322Z 02006KT 19/17 A2989 RMK A01 T01890171  RH  089%=      5-min Rain = 0
KCL2 300323Z 02007KT 19/17 A2989 RMK A01 T01890171  RH  089%=      5-min Rain = 0
KCL2 300324Z 02006KT 19/17 A2989 RMK A01 T01890171  RH  089%=      5-min Rain = 0
KCL2 300325Z 02006KT 19/17 A2989 RMK A01 T01890171  RH  089%=      5-min Rain = 0
KCL2 300326Z 02006KT 19/17 A2989 RMK A01 T01890171  RH  089%=      5-min Rain = 0
KCL2 300327Z 03007KT 19/17 A299 RMK A01 T01890171  RH  089%=      5-min Rain = 0
KCL2 300328Z 03007KT 19/17 A299 RMK A01 T01890171  RH  089%=      5-min Rain = 0
KCL2 300329Z 03006KT 19/17 A299 RMK A01 T01890171  RH  089%=      5-min Rain = 0
KCL2 300330Z 03007KT 19/17 A299 RMK A01 T01890171  RH  089%=      5-min Rain = 0
KCL2 300331Z 03008KT 19/17 A299 RMK A01 T01890171  RH  089%=      5-min Rain = 0
KCL2 300332Z 03008KT 19/17 A299 RMK A01 T01890171  RH  089%=      5-min Rain = 0
KCL2 300333Z 04007KT 19/17 A299 RMK A01 T01890171  RH  089%=      5-min Rain = 0
KCL2 300334Z 03007KT 19/17 A299 RMK A01 T01890170  RH  089%=      5-min Rain = 0
KCL2 300335Z 03007KT 19/17 A2991 RMK A01 T01890170  RH  089%=      5-min Rain = 0
KCL2 300336Z 03007KT 19/17 A2991 RMK A01 T01890170  RH  089%=      5-min Rain = 0
KCL2 300337Z 03007KT 19/17 A2991 RMK A01 T01890170  RH  089%=      5-min Rain = 0
KCL2 300338Z 03007KT 19/17 A2991 RMK A01 T01890170  RH  088%=      5-min Rain = 0
KCL2 300339Z 03007KT 19/17 A2991 RMK A01 T01890170  RH  088%=      5-min Rain = 0
KCL2 300340Z 03007KT 19/17 A2991 RMK A01 T01890170  RH  089%=      5-min Rain = 0
KCL2 300341Z 03006KT 19/17 A2991 RMK A01 T01890170  RH  089%=      5-min Rain = 0
KCL2 300342Z 03006KT 19/17 A2991 RMK A01 T01890170  RH  089%=      5-min Rain = 0
KCL2 300343Z 03005KT 19/17 A2991 RMK A01 T01890170  RH  089%=      5-min Rain = 0
KCL2 300344Z 03007KT 19/17 A2991 RMK A01 T01880170  RH  089%=      5-min Rain = 0
KCL2 300345Z 03006KT 19/17 A2991 RMK A01 T01880170  RH  089%=      5-min Rain = 0
KCL2 300346Z 03006KT 19/17 A2991 RMK A01 T01880170  RH  089%=      5-min Rain = 0
KCL2 300347Z 02005KT 19/17 A2991 RMK A01 T01880171  RH  089%=      5-min Rain = 0
KCL2 300348Z 02006KT 19/17 A2991 RMK A01 T01880170  RH  090%=      5-min Rain = 0
KCL2 300349Z 02005KT 19/17 A2991 RMK A01 T01870171  RH  090%=      5-min Rain = 0
KCL2 300350Z 02005KT 19/17 A2991 RMK A01 T01880171  RH  090%=      5-min Rain = 0
KCL2 300351Z 02004KT 19/17 A2991 RMK A01 T01870171  RH  090%=      5-min Rain = 0
KCL2 300352Z 02005KT 19/17 A2991 RMK A01 T01870171  RH  090%=      5-min Rain = 0
KCL2 300353Z 02005KT 19/17 A2991 RMK A01 T01870171  RH  090%=      5-min Rain = 0
KCL2 300354Z 02005KT 19/17 A2991 RMK A01 T01870171  RH  090%=      5-min Rain = 0
KCL2 300355Z 02006KT 19/17 A2991 RMK A01 T01860170  RH  090%=      5-min Rain = 0
KCL2 300356Z 02005KT 19/17 A2991 RMK A01 T01860170  RH  090%=      5-min Rain = 0
KCL2 300357Z 02005KT 19/17 A2991 RMK A01 T01860170  RH  090%=      5-min Rain = 0
KCL2 300358Z 02005KT 19/17 A2991 RMK A01 T01860170  RH  090%=      5-min Rain = 0
KCL2 300359Z 02005KT 19/17 A2991 RMK A01 T01860171  RH  091%=      5-min Rain = 0
KCL2 300400Z 02005KT 19/17 A2992 RMK A01 T01860170  RH  091%=      5-min Rain = 0
KCL2 300401Z 02005KT 19/17 A2991 RMK A01 T01860170  RH  091%=      5-min Rain = 0
KCL2 300402Z 03005KT 19/17 A2992 RMK A01 T01860170  RH  091%=      5-min Rain = 0
KCL2 300403Z 03005KT 19/17 A2992 RMK A01 T01850170  RH  091%=      5-min Rain = 0
KCL2 300404Z 03005KT 19/17 A2992 RMK A01 T01850170  RH  091%=      5-min Rain = 0
KCL2 300405Z 02005KT 19/17 A2992 RMK A01 T01850170  RH  091%=      5-min Rain = 0
KCL2 300406Z 03005KT 19/17 A2992 RMK A01 T01850170  RH  091%=      5-min Rain = 0
KCL2 300407Z 02006KT 19/17 A2992 RMK A01 T01850169  RH  091%=      5-min Rain = 0
KCL2 300408Z 03005KT 19/17 A2992 RMK A01 T01860170  RH  091%=      5-min Rain = 0
KCL2 300409Z 03005KT 19/17 A2992 RMK A01 T01860170  RH  091%=      5-min Rain = 0
KCL2 300410Z 03006KT 19/17 A2992 RMK A01 T01860170  RH  091%=      5-min Rain = 0
KCL2 300411Z 02007KT 19/17 A2992 RMK A01 T01860170  RH  090%=      5-min Rain = 0
KCL2 300412Z 03006KT 19/17 A2992 RMK A01 T01860170  RH  090%=      5-min Rain = 0
KCL2 300413Z 02006KT 19/17 A2992 RMK A01 T01860170  RH  090%=      5-min Rain = 0
KCL2 300414Z 03006KT 19/17 A2992 RMK A01 T01860170  RH  090%=      5-min Rain = 0
KCL2 300415Z 03006KT 19/17 A2992 RMK A01 T01860170  RH  090%=      5-min Rain = 0
KCL2 300416Z 03006KT 19/17 A2992 RMK A01 T01860170  RH  090%=      5-min Rain = 0
KCL2 300417Z 03007KT 19/17 A2992 RMK A01 T01860169  RH  090%=      5-min Rain = 0
KCL2 300418Z 03007KT 19/17 A2992 RMK A01 T01860169  RH  090%=      5-min Rain = 0
KCL2 300419Z 03006KT 19/17 A2992 RMK A01 T01850169  RH  090%=      5-min Rain = 0
KCL2 300420Z 03007KT 19/17 A2992 RMK A01 T01860169  RH  090%=      5-min Rain = 0
KCL2 300421Z 03007KT 19/17 A2992 RMK A01 T01850169  RH  090%=      5-min Rain = 0
KCL2 300422Z 04007KT 19/17 A2992 RMK A01 T01860169  RH  090%=      5-min Rain = 0
KCL2 300423Z 04008KT 19/17 A2992 RMK A01 T01860169  RH  090%=      5-min Rain = 0
KCL2 300424Z 04008KT 19/17 A2992 RMK A01 T01860169  RH  090%=      5-min Rain = 0
KCL2 300425Z 04007KT 19/17 A2992 RMK A01 T01860169  RH  090%=      5-min Rain = 0
KCL2 300426Z 04007KT 19/17 A2992 RMK A01 T01860169  RH  090%=      5-min Rain = 0
KCL2 300427Z 04008KT 19/17 A2992 RMK A01 T01860169  RH  090%=      5-min Rain = 0
KCL2 300428Z 04008KT 19/17 A2992 RMK A01 T01860169  RH  090%=      5-min Rain = 0
KCL2 300429Z 04008KT 19/17 A2992 RMK A01 T01860169  RH  090%=      5-min Rain = 0
KCL2 300430Z 03008KT 19/17 A2992 RMK A01 T01860169  RH  090%=      5-min Rain = 0
KCL2 300431Z 04007KT 19/17 A2992 RMK A01 T01860169  RH  090%=      5-min Rain = 0
KCL2 300432Z 04007KT 19/17 A2992 RMK A01 T01860169  RH  090%=      5-min Rain = 0
KCL2 300433Z 04008KT 19/17 A2992 RMK A01 T01860169  RH  090%=      5-min Rain = 0
KCL2 300434Z 04007KT 19/17 A2993 RMK A01 T01860169  RH  090%=      5-min Rain = 0
KCL2 300435Z 04007KT 19/17 A2993 RMK A01 T01860169  RH  090%=      5-min Rain = 0
KCL2 300436Z 04008KT 19/17 A2993 RMK A01 T01860169  RH  090%=      5-min Rain = 0
KCL2 300437Z 04007KT 19/17 A2993 RMK A01 T01860169  RH  090%=      5-min Rain = 0
KCL2 300438Z 03007KT 19/17 A2993 RMK A01 T01860169  RH  090%=      5-min Rain = 0
KCL2 300439Z 04007KT 19/17 A2993 RMK A01 T01860169  RH  090%=      5-min Rain = 0
KCL2 300440Z 04008KT 19/17 A2993 RMK A01 T01860169  RH  089%=      5-min Rain = 0
KCL2 300441Z 04007KT 19/17 A2993 RMK A01 T01860168  RH  089%=      5-min Rain = 0
KCL2 300442Z 04007KT 19/17 A2993 RMK A01 T01860168  RH  089%=      5-min Rain = 0
KCL2 300443Z 04008KT 19/17 A2993 RMK A01 T01860168  RH  089%=      5-min Rain = 0
KCL2 300444Z 04007KT 19/17 A2993 RMK A01 T01860167  RH  089%=      5-min Rain = 0
KCL2 300445Z 04007KT 19/17 A2993 RMK A01 T01850167  RH  089%=      5-min Rain = 0
KCL2 300446Z 04007KT 19/17 A2993 RMK A01 T01860167  RH  089%=      5-min Rain = 0
KCL2 300447Z 04007KT 19/17 A2993 RMK A01 T01860167  RH  089%=      5-min Rain = 0
KCL2 300448Z 04007KT 19/17 A2993 RMK A01 T01860167  RH  089%=      5-min Rain = 0
KCL2 300449Z 04008KT 19/17 A2993 RMK A01 T01860166  RH  088%=      5-min Rain = 0
KCL2 300450Z 04007KT 19/17 A2993 RMK A01 T01850166  RH  088%=      5-min Rain = 0
KCL2 300451Z 04008KT 19/17 A2993 RMK A01 T01860166  RH  088%=      5-min Rain = 0
KCL2 300452Z 04007KT 19/17 A2993 RMK A01 T01850166  RH  088%=      5-min Rain = 0
KCL2 300453Z 04007KT 19/17 A2993 RMK A01 T01850166  RH  088%=      5-min Rain = 0
KCL2 300454Z 05008KT 19/17 A2993 RMK A01 T01850165  RH  088%=      5-min Rain = 0
KCL2 300455Z 05008KT 19/17 A2993 RMK A01 T01850165  RH  088%=      5-min Rain = 0
KCL2 300456Z 04008KT 19/17 A2993 RMK A01 T01850165  RH  088%=      5-min Rain = 0
KCL2 300457Z 04008KT 19/17 A2993 RMK A01 T01850165  RH  088%=      5-min Rain = 0
KCL2 300458Z 04008KT 19/16 A2992 RMK A01 T01850164  RH  088%=      5-min Rain = 0
KCL2 300459Z 04008KT 19/16 A2992 RMK A01 T01850164  RH  088%=      5-min Rain = 0

Page generated in 0.0965 seconds.